Observation data for Wall on 01/12/2018      Previous  Date  Next       Current Mesonet Observations  Soil Data  Daily Summary Page  Observations in Plain Language
KWA1 120600Z 35007KT 01/M09 A3031 RMK A01 T00111092  RH  046%=      5-min Rain = 0
KWA1 120601Z 35007KT 01/M09 A3031 RMK A01 T00111092  RH  046%=      5-min Rain = 0
KWA1 120602Z 35007KT 01/M09 A3031 RMK A01 T00111092  RH  046%=      5-min Rain = 0
KWA1 120603Z 35007KT 01/M09 A3031 RMK A01 T00091092  RH  047%=      5-min Rain = 0
KWA1 120604Z 35007KT 01/M09 A3031 RMK A01 T00081092  RH  047%=      5-min Rain = 0
KWA1 120605Z 35007KT 01/M09 A3031 RMK A01 T00071092  RH  047%=      5-min Rain = 0
KWA1 120606Z 35007KT 01/M09 A3031 RMK A01 T00061092  RH  048%=      5-min Rain = 0
KWA1 120607Z 36007KT 00/M09 A3031 RMK A01 T00041093  RH  048%=      5-min Rain = 0
KWA1 120608Z 00007KT 00/M09 A3031 RMK A01 T00011093  RH  050%=      5-min Rain = 0
KWA1 120609Z 00007KT M00/M09 A3031 RMK A01 T10011091  RH  050%=      5-min Rain = 0
KWA1 120610Z 00007KT 00/09 A3031 RMK A01 T00000-91  RH  050%=      5-min Rain = 0
KWA1 120611Z 00007KT 00/M09 A3031 RMK A01 T00021090  RH  050%=      5-min Rain = 0
KWA1 120612Z 00007KT 00/M09 A3031 RMK A01 T00031089  RH  050%=      5-min Rain = 0
KWA1 120613Z 00007KT 00/M09 A3031 RMK A01 T00031090  RH  050%=      5-min Rain = 0
KWA1 120614Z 00007KT 00/M09 A3031 RMK A01 T00041089  RH  050%=      5-min Rain = 0
KWA1 120615Z 00006KT 00/M09 A3031 RMK A01 T00031088  RH  051%=      5-min Rain = 0
KWA1 120616Z 01006KT 00/M09 A3031 RMK A01 T00031087  RH  051%=      5-min Rain = 0
KWA1 120617Z 01006KT 00/M09 A3031 RMK A01 T00041087  RH  050%=      5-min Rain = 0
KWA1 120618Z 01006KT 01/M09 A3031 RMK A01 T00051088  RH  050%=      5-min Rain = 0
KWA1 120619Z 01005KT 00/M09 A3031 RMK A01 T00041089  RH  050%=      5-min Rain = 0
KWA1 120620Z 01005KT 00/M09 A3031 RMK A01 T00041090  RH  049%=      5-min Rain = 0
KWA1 120621Z 00005KT 00/M09 A3031 RMK A01 T00021091  RH  050%=      5-min Rain = 0
KWA1 120622Z 00005KT 00/M09 A3031 RMK A01 T00021090  RH  050%=      5-min Rain = 0
KWA1 120623Z 00005KT 00/M09 A3031 RMK A01 T00021089  RH  050%=      5-min Rain = 0
KWA1 120624Z 00005KT 00/M09 A3031 RMK A01 T00031089  RH  050%=      5-min Rain = 0
KWA1 120625Z 00005KT 00/M09 A3031 RMK A01 T00041089  RH  050%=      5-min Rain = 0
KWA1 120626Z 36005KT 00/M09 A3031 RMK A01 T00041089  RH  049%=      5-min Rain = 0
KWA1 120627Z 35005KT 01/M09 A3032 RMK A01 T00051089  RH  049%=      5-min Rain = 0
KWA1 120628Z 35005KT 00/M09 A3032 RMK A01 T00041090  RH  049%=      5-min Rain = 0
KWA1 120629Z 35005KT 01/M09 A3032 RMK A01 T00051089  RH  049%=      5-min Rain = 0
KWA1 120630Z 35005KT 01/M09 A3032 RMK A01 T00051090  RH  049%=      5-min Rain = 0
KWA1 120631Z 35005KT 01/M09 A3031 RMK A01 T00061090  RH  049%=      5-min Rain = 0
KWA1 120632Z 35005KT 01/M09 A3031 RMK A01 T00051091  RH  049%=      5-min Rain = 0
KWA1 120633Z 35005KT 00/M09 A3031 RMK A01 T00041092  RH  049%=      5-min Rain = 0
KWA1 120634Z 35005KT 00/M09 A3031 RMK A01 T00031092  RH  049%=      5-min Rain = 0
KWA1 120635Z 35006KT 00/M09 A3031 RMK A01 T00031092  RH  049%=      5-min Rain = 0
KWA1 120636Z 00007KT 00/M09 A3031 RMK A01 T00031092  RH  049%=      5-min Rain = 0
KWA1 120637Z 00007KT 00/M09 A3031 RMK A01 T00031093  RH  048%=      5-min Rain = 0
KWA1 120638Z 00007KT 00/M09 A3031 RMK A01 T00031093  RH  049%=      5-min Rain = 0
KWA1 120639Z 00007KT 00/M09 A3031 RMK A01 T00021093  RH  049%=      5-min Rain = 0
KWA1 120640Z 00007KT 00/09 A3032 RMK A01 T00000-93  RH  049%=      5-min Rain = 0
KWA1 120641Z 00007KT M00/M09 A3032 RMK A01 T10011093  RH  050%=      5-min Rain = 0
KWA1 120642Z 01007KT M00/M09 A3032 RMK A01 T10021093  RH  050%=      5-min Rain = 0
KWA1 120643Z 01007KT M00/M09 A3031 RMK A01 T10011092  RH  051%=      5-min Rain = 0
KWA1 120644Z 01007KT M00/M09 A3031 RMK A01 T10011090  RH  051%=      5-min Rain = 0
KWA1 120645Z 01007KT M00/M09 A3031 RMK A01 T10021090  RH  051%=      5-min Rain = 0
KWA1 120646Z 01007KT M00/M09 A3031 RMK A01 T10021090  RH  051%=      5-min Rain = 0
KWA1 120647Z 01007KT M00/M09 A3031 RMK A01 T10021090  RH  051%=      5-min Rain = 0
KWA1 120648Z 01006KT M00/M09 A3031 RMK A01 T10021090  RH  051%=      5-min Rain = 0
KWA1 120649Z 01007KT M00/M09 A3031 RMK A01 T10021090  RH  051%=      5-min Rain = 0
KWA1 120650Z 01007KT M00/M09 A3031 RMK A01 T10011089  RH  052%=      5-min Rain = 0
KWA1 120651Z 01006KT M00/M09 A3031 RMK A01 T10021089  RH  052%=      5-min Rain = 0
KWA1 120652Z 01006KT M00/M09 A3031 RMK A01 T10031090  RH  052%=      5-min Rain = 0
KWA1 120653Z 01006KT M00/M09 A3031 RMK A01 T10041091  RH  052%=      5-min Rain = 0
KWA1 120654Z 01006KT M00/M09 A3031 RMK A01 T10041091  RH  052%=      5-min Rain = 0
KWA1 120655Z 01006KT M00/M09 A3031 RMK A01 T10041091  RH  052%=      5-min Rain = 0
KWA1 120656Z 01006KT M00/M09 A3031 RMK A01 T10041091  RH  052%=      5-min Rain = 0
KWA1 120657Z 01006KT M00/M09 A3031 RMK A01 T10041091  RH  052%=      5-min Rain = 0
KWA1 120658Z 01006KT M00/M09 A3031 RMK A01 T10031090  RH  052%=      5-min Rain = 0
KWA1 120659Z 02006KT M00/M09 A3031 RMK A01 T10021090  RH  051%=      5-min Rain = 0
KWA1 120700Z 02006KT M00/M09 A3031 RMK A01 T10011090  RH  051%=      5-min Rain = 0
KWA1 120701Z 02007KT 00/09 A3031 RMK A01 T00-00-90  RH  051%=      5-min Rain = 0
KWA1 120702Z 02007KT 00/09 A3031 RMK A01 T00000-89  RH  051%=      5-min Rain = 0
KWA1 120703Z 02007KT 00/09 A3031 RMK A01 T00000-89  RH  051%=      5-min Rain = 0
KWA1 120704Z 02008KT M00/M09 A3031 RMK A01 T10011089  RH  051%=      5-min Rain = 0
KWA1 120705Z 02008KT M00/M09 A3031 RMK A01 T10011088  RH  052%=      5-min Rain = 0
KWA1 120706Z 02008KT M00/M09 A3031 RMK A01 T10021087  RH  052%=      5-min Rain = 0
KWA1 120707Z 02009KT M00/M09 A3031 RMK A01 T10031087  RH  053%=      5-min Rain = 0
KWA1 120708Z 02009KT M00/M09 A3031 RMK A01 T10041087  RH  054%=      5-min Rain = 0
KWA1 120709Z 02009KT M01/M09 A3031 RMK A01 T10051087  RH  054%=      5-min Rain = 0
KWA1 120710Z 02010KT M01/M09 A3031 RMK A01 T10051087  RH  054%=      5-min Rain = 0
KWA1 120711Z 02009KT M01/M09 A3031 RMK A01 T10051086  RH  054%=      5-min Rain = 0
KWA1 120712Z 02010KT M01/M09 A3031 RMK A01 T10051086  RH  054%=      5-min Rain = 0
KWA1 120713Z 02009KT M01/M09 A3031 RMK A01 T10051087  RH  054%=      5-min Rain = 0
KWA1 120714Z 02010KT M01/M09 A3031 RMK A01 T10061086  RH  054%=      5-min Rain = 0
KWA1 120715Z 02010KT M01/M09 A3031 RMK A01 T10071086  RH  055%=      5-min Rain = 0
KWA1 120716Z 02010KT M01/M09 A3031 RMK A01 T10071087  RH  055%=      5-min Rain = 0
KWA1 120717Z 02010KT M01/M09 A3031 RMK A01 T10081087  RH  055%=      5-min Rain = 0
KWA1 120718Z 02010KT M01/M09 A3031 RMK A01 T10081086  RH  055%=      5-min Rain = 0
KWA1 120719Z 01010KT M01/M09 A3031 RMK A01 T10081086  RH  056%=      5-min Rain = 0
KWA1 120720Z 02011KT M01/M09 A3031 RMK A01 T10071085  RH  056%=      5-min Rain = 0
KWA1 120721Z 02010KT M00/M08 A3031 RMK A01 T10031083  RH  055%=      5-min Rain = 0
KWA1 120722Z 02010KT M00/M08 A3031 RMK A01 T10011083  RH  054%=      5-min Rain = 0
KWA1 120723Z 02010KT M00/M08 A3031 RMK A01 T10011084  RH  053%=      5-min Rain = 0
KWA1 120724Z 02010KT M00/M09 A3031 RMK A01 T10011085  RH  053%=      5-min Rain = 0
KWA1 120725Z 01010KT M00/M09 A3031 RMK A01 T10011085  RH  053%=      5-min Rain = 0
KWA1 120726Z 01009KT M00/M09 A3031 RMK A01 T10031085  RH  054%=      5-min Rain = 0
KWA1 120727Z 01010KT M00/M08 A3031 RMK A01 T10041084  RH  055%=      5-min Rain = 0
KWA1 120728Z 01010KT M01/M08 A3031 RMK A01 T10051084  RH  055%=      5-min Rain = 0
KWA1 120729Z 01010KT M00/M08 A3031 RMK A01 T10041083  RH  055%=      5-min Rain = 0
KWA1 120730Z 01010KT M00/M08 A3031 RMK A01 T10021083  RH  054%=      5-min Rain = 0
KWA1 120731Z 01010KT M00/M08 A3031 RMK A01 T10011083  RH  054%=      5-min Rain = 0
KWA1 120732Z 01009KT 00/08 A3031 RMK A01 T00-00-82  RH  054%=      5-min Rain = 0
KWA1 120733Z 02009KT 00/08 A3031 RMK A01 T00-00-82  RH  054%=      5-min Rain = 0
KWA1 120734Z 02009KT 00/08 A3031 RMK A01 T00000-82  RH  054%=      5-min Rain = 0
KWA1 120735Z 02009KT 00/08 A3031 RMK A01 T00000-82  RH  054%=      5-min Rain = 0
KWA1 120736Z 02010KT 00/M08 A3031 RMK A01 T00011082  RH  054%=      5-min Rain = 0
KWA1 120737Z 02010KT 00/M08 A3031 RMK A01 T00021081  RH  054%=      5-min Rain = 0
KWA1 120738Z 02010KT 00/M08 A3031 RMK A01 T00031081  RH  053%=      5-min Rain = 0
KWA1 120739Z 02010KT 00/M08 A3031 RMK A01 T00031081  RH  053%=      5-min Rain = 0
KWA1 120740Z 02009KT 00/M08 A3031 RMK A01 T00031081  RH  053%=      5-min Rain = 0
KWA1 120741Z 02010KT 00/M08 A3031 RMK A01 T00031081  RH  053%=      5-min Rain = 0
KWA1 120742Z 02010KT 00/M08 A3031 RMK A01 T00031081  RH  053%=      5-min Rain = 0
KWA1 120743Z 02009KT 00/M08 A3031 RMK A01 T00031081  RH  053%=      5-min Rain = 0
KWA1 120744Z 01010KT 00/M08 A3031 RMK A01 T00031081  RH  053%=      5-min Rain = 0
KWA1 120745Z 01010KT 00/M08 A3031 RMK A01 T00031081  RH  053%=      5-min Rain = 0
KWA1 120746Z 01010KT 00/M08 A3031 RMK A01 T00031081  RH  053%=      5-min Rain = 0
KWA1 120747Z 01011KT 00/M08 A3031 RMK A01 T00031081  RH  053%=      5-min Rain = 0
KWA1 120748Z 02010KT 00/M08 A3031 RMK A01 T00041080  RH  053%=      5-min Rain = 0
KWA1 120749Z 02010KT 00/M08 A3031 RMK A01 T00041080  RH  053%=      5-min Rain = 0
KWA1 120750Z 02010KT 01/M08 A3031 RMK A01 T00051080  RH  053%=      5-min Rain = 0
KWA1 120751Z 02010KT 01/M08 A3031 RMK A01 T00051080  RH  053%=      5-min Rain = 0
KWA1 120752Z 02010KT 01/M08 A3031 RMK A01 T00051080  RH  053%=      5-min Rain = 0
KWA1 120753Z 02010KT 01/M08 A3031 RMK A01 T00061080  RH  053%=      5-min Rain = 0
KWA1 120754Z 02010KT 01/M08 A3031 RMK A01 T00071080  RH  052%=      5-min Rain = 0
KWA1 120755Z 02010KT 01/M08 A3031 RMK A01 T00081080  RH  052%=      5-min Rain = 0
KWA1 120756Z 02010KT 01/M08 A3031 RMK A01 T00071080  RH  052%=      5-min Rain = 0
KWA1 120757Z 02010KT 01/M08 A3031 RMK A01 T00071080  RH  052%=      5-min Rain = 0
KWA1 120758Z 01009KT 01/M08 A3031 RMK A01 T00061081  RH  052%=      5-min Rain = 0
KWA1 120759Z 02009KT 01/M08 A3031 RMK A01 T00051080  RH  053%=      5-min Rain = 0
KWA1 120800Z 02009KT 00/M08 A3031 RMK A01 T00041080  RH  053%=      5-min Rain = 0
KWA1 120801Z 02009KT 00/M08 A3031 RMK A01 T00031080  RH  054%=      5-min Rain = 0
KWA1 120802Z 01009KT 00/M08 A3031 RMK A01 T00021080  RH  054%=      5-min Rain = 0
KWA1 120803Z 01008KT 00/M08 A3031 RMK A01 T00011080  RH  055%=      5-min Rain = 0
KWA1 120804Z 01008KT 00/08 A3031 RMK A01 T00-00-80  RH  055%=      5-min Rain = 0
KWA1 120805Z 02008KT M00/M08 A3031 RMK A01 T10011080  RH  055%=      5-min Rain = 0
KWA1 120806Z 02008KT M00/M08 A3031 RMK A01 T10021080  RH  056%=      5-min Rain = 0
KWA1 120807Z 02008KT M00/M08 A3031 RMK A01 T10031080  RH  056%=      5-min Rain = 0
KWA1 120808Z 02008KT M00/M08 A3031 RMK A01 T10031080  RH  056%=      5-min Rain = 0
KWA1 120809Z 02008KT M00/M08 A3031 RMK A01 T10041081  RH  056%=      5-min Rain = 0
KWA1 120810Z 02007KT M01/M08 A3031 RMK A01 T10051081  RH  056%=      5-min Rain = 0
KWA1 120811Z 02007KT M01/M08 A3031 RMK A01 T10051081  RH  057%=      5-min Rain = 0
KWA1 120812Z 02007KT M01/M08 A3031 RMK A01 T10061081  RH  057%=      5-min Rain = 0
KWA1 120813Z 02006KT M01/M08 A3031 RMK A01 T10061081  RH  057%=      5-min Rain = 0
KWA1 120814Z 02007KT M01/M08 A3031 RMK A01 T10071081  RH  057%=      5-min Rain = 0
KWA1 120815Z 02006KT M01/M08 A3032 RMK A01 T10081082  RH  057%=      5-min Rain = 0
KWA1 120816Z 02006KT M01/M08 A3032 RMK A01 T10081082  RH  057%=      5-min Rain = 0
KWA1 120817Z 02006KT M01/M08 A3032 RMK A01 T10071082  RH  057%=      5-min Rain = 0
KWA1 120818Z 02006KT M01/M08 A3032 RMK A01 T10071082  RH  057%=      5-min Rain = 0
KWA1 120819Z 02005KT M01/M08 A3032 RMK A01 T10071083  RH  056%=      5-min Rain = 0
KWA1 120820Z 02005KT M01/M08 A3032 RMK A01 T10061083  RH  056%=      5-min Rain = 0
KWA1 120821Z 01005KT M01/M08 A3032 RMK A01 T10061083  RH  056%=      5-min Rain = 0
KWA1 120822Z 01005KT M01/M08 A3032 RMK A01 T10061082  RH  056%=      5-min Rain = 0
KWA1 120823Z 01004KT M01/M08 A3032 RMK A01 T10071082  RH  057%=      5-min Rain = 0
KWA1 120824Z 01005KT M01/M08 A3032 RMK A01 T10081083  RH  057%=      5-min Rain = 0
KWA1 120825Z 00005KT M01/M08 A3032 RMK A01 T10081082  RH  057%=      5-min Rain = 0
KWA1 120826Z 00004KT M01/M08 A3032 RMK A01 T10081083  RH  057%=      5-min Rain = 0
KWA1 120827Z 00004KT M01/M08 A3032 RMK A01 T10091083  RH  057%=      5-min Rain = 0
KWA1 120828Z 35004KT M01/M08 A3032 RMK A01 T10091083  RH  057%=      5-min Rain = 0
KWA1 120829Z 00004KT M01/M08 A3032 RMK A01 T10101083  RH  058%=      5-min Rain = 0
KWA1 120830Z 36003KT M01/M08 A3032 RMK A01 T10101082  RH  058%=      5-min Rain = 0
KWA1 120831Z 35004KT M01/M08 A3032 RMK A01 T10101083  RH  058%=      5-min Rain = 0
KWA1 120832Z 35004KT M01/M08 A3032 RMK A01 T10101083  RH  058%=      5-min Rain = 0
KWA1 120833Z 00004KT M01/M08 A3032 RMK A01 T10101083  RH  058%=      5-min Rain = 0
KWA1 120834Z 00004KT M01/M08 A3032 RMK A01 T10101083  RH  058%=      5-min Rain = 0
KWA1 120835Z 01004KT M01/M08 A3031 RMK A01 T10101083  RH  058%=      5-min Rain = 0
KWA1 120836Z 01004KT M01/M08 A3031 RMK A01 T10101083  RH  057%=      5-min Rain = 0
KWA1 120837Z 01004KT M01/M08 A3031 RMK A01 T10101084  RH  057%=      5-min Rain = 0
KWA1 120838Z 01004KT M01/M08 A3032 RMK A01 T10101084  RH  057%=      5-min Rain = 0
KWA1 120839Z 01004KT M01/M08 A3032 RMK A01 T10101084  RH  057%=      5-min Rain = 0
KWA1 120840Z 01004KT M01/M08 A3032 RMK A01 T10091084  RH  057%=      5-min Rain = 0
KWA1 120841Z 02005KT M01/M08 A3032 RMK A01 T10101084  RH  057%=      5-min Rain = 0
KWA1 120842Z 02004KT M01/M08 A3031 RMK A01 T10101084  RH  057%=      5-min Rain = 0
KWA1 120843Z 02005KT M01/M08 A3031 RMK A01 T10101084  RH  057%=      5-min Rain = 0
KWA1 120844Z 02005KT M01/M08 A3031 RMK A01 T10111084  RH  058%=      5-min Rain = 0
KWA1 120845Z 02004KT M01/M08 A3031 RMK A01 T10111083  RH  058%=      5-min Rain = 0
KWA1 120846Z 01004KT M01/M08 A3032 RMK A01 T10101084  RH  058%=      5-min Rain = 0
KWA1 120847Z 01004KT M01/M09 A3032 RMK A01 T10111085  RH  057%=      5-min Rain = 0
KWA1 120848Z 01004KT M01/M09 A3032 RMK A01 T10111085  RH  057%=      5-min Rain = 0
KWA1 120849Z 01004KT M01/M09 A3031 RMK A01 T10111085  RH  057%=      5-min Rain = 0
KWA1 120850Z 01004KT M01/M09 A3031 RMK A01 T10101085  RH  057%=      5-min Rain = 0
KWA1 120851Z 01004KT M01/M09 A3031 RMK A01 T10111085  RH  057%=      5-min Rain = 0
KWA1 120852Z 01004KT M01/M09 A3031 RMK A01 T10111086  RH  057%=      5-min Rain = 0
KWA1 120853Z 01004KT M01/M09 A3031 RMK A01 T10101085  RH  057%=      5-min Rain = 0
KWA1 120854Z 01004KT M01/M09 A3031 RMK A01 T10111086  RH  057%=      5-min Rain = 0
KWA1 120855Z 01004KT M01/M09 A3031 RMK A01 T10111085  RH  057%=      5-min Rain = 0
KWA1 120856Z 01004KT M01/M09 A3031 RMK A01 T10101085  RH  057%=      5-min Rain = 0
KWA1 120857Z 01004KT M01/M09 A3031 RMK A01 T10101085  RH  057%=      5-min Rain = 0
KWA1 120858Z 00004KT M01/M09 A3031 RMK A01 T10111086  RH  057%=      5-min Rain = 0
KWA1 120859Z 00004KT M01/M09 A3031 RMK A01 T10111085  RH  057%=      5-min Rain = 0
KWA1 120900Z 00004KT M01/M09 A3031 RMK A01 T10111086  RH  057%=      5-min Rain = 0
KWA1 120901Z 00003KT M01/M09 A3031 RMK A01 T10111086  RH  057%=      5-min Rain = 0
KWA1 120902Z 00003KT M01/M09 A3031 RMK A01 T10111086  RH  057%=      5-min Rain = 0
KWA1 120903Z 36002KT M01/M09 A3031 RMK A01 T10121086  RH  057%=      5-min Rain = 0
KWA1 120904Z 35002KT M01/M09 A3031 RMK A01 T10131087  RH  057%=      5-min Rain = 0
KWA1 120905Z 35002KT M01/M09 A3032 RMK A01 T10131086  RH  057%=      5-min Rain = 0
KWA1 120906Z 35002KT M01/M09 A3032 RMK A01 T10131086  RH  058%=      5-min Rain = 0
KWA1 120907Z 35001KT M01/M09 A3032 RMK A01 T10131086  RH  058%=      5-min Rain = 0
KWA1 120908Z 35001KT M01/M09 A3032 RMK A01 T10131086  RH  058%=      5-min Rain = 0
KWA1 120909Z 35000KT M01/M09 A3032 RMK A01 T10131086  RH  058%=      5-min Rain = 0
KWA1 120910Z 35000KT M01/M09 A3032 RMK A01 T10131086  RH  058%=      5-min Rain = 0
KWA1 120911Z 35000KT M01/M09 A3032 RMK A01 T10111085  RH  057%=      5-min Rain = 0
KWA1 120912Z 34000KT M01/M09 A3032 RMK A01 T10111086  RH  057%=      5-min Rain = 0
KWA1 120913Z 32001KT M01/M09 A3031 RMK A01 T10111086  RH  057%=      5-min Rain = 0
KWA1 120914Z 30001KT M01/M09 A3031 RMK A01 T10101086  RH  056%=      5-min Rain = 0
KWA1 120915Z 33001KT M01/M09 A3031 RMK A01 T10121088  RH  056%=      5-min Rain = 0
KWA1 120916Z 31002KT M01/M09 A3031 RMK A01 T10131088  RH  057%=      5-min Rain = 0
KWA1 120917Z 31002KT M01/M09 A3031 RMK A01 T10121087  RH  057%=      5-min Rain = 0
KWA1 120918Z 31002KT M01/M09 A3031 RMK A01 T10121087  RH  056%=      5-min Rain = 0
KWA1 120919Z 30003KT M01/M09 A3031 RMK A01 T10101086  RH  056%=      5-min Rain = 0
KWA1 120920Z 30004KT M01/M09 A3031 RMK A01 T10091087  RH  055%=      5-min Rain = 0
KWA1 120921Z 31004KT M01/M09 A3031 RMK A01 T10111088  RH  056%=      5-min Rain = 0
KWA1 120922Z 31004KT M01/M09 A3031 RMK A01 T10121089  RH  056%=      5-min Rain = 0
KWA1 120923Z 32003KT M01/M09 A3031 RMK A01 T10131089  RH  056%=      5-min Rain = 0
KWA1 120924Z 32003KT M01/M09 A3031 RMK A01 T10121088  RH  056%=      5-min Rain = 0
KWA1 120925Z 32003KT M01/M09 A3031 RMK A01 T10121088  RH  056%=      5-min Rain = 0
KWA1 120926Z 33003KT M01/M09 A3031 RMK A01 T10121088  RH  056%=      5-min Rain = 0
KWA1 120927Z 32003KT M01/M09 A3031 RMK A01 T10121088  RH  056%=      5-min Rain = 0
KWA1 120928Z 32003KT M01/M09 A3031 RMK A01 T10121088  RH  057%=      5-min Rain = 0
KWA1 120929Z 32003KT M01/M09 A3031 RMK A01 T10131088  RH  057%=      5-min Rain = 0
KWA1 120930Z 32003KT M01/M09 A3031 RMK A01 T10141088  RH  057%=      5-min Rain = 0
KWA1 120931Z 31002KT M02/M09 A3031 RMK A01 T10151089  RH  057%=      5-min Rain = 0
KWA1 120932Z 31002KT M02/M09 A3031 RMK A01 T10161090  RH  057%=      5-min Rain = 0
KWA1 120933Z 31002KT M02/M09 A3031 RMK A01 T10171090  RH  058%=      5-min Rain = 0
KWA1 120934Z 31002KT M02/M09 A3031 RMK A01 T10181089  RH  058%=      5-min Rain = 0
KWA1 120935Z 32002KT M02/M09 A3031 RMK A01 T10181089  RH  058%=      5-min Rain = 0
KWA1 120936Z 33002KT M02/M09 A3031 RMK A01 T10171088  RH  059%=      5-min Rain = 0
KWA1 120937Z 33002KT M02/M09 A3031 RMK A01 T10161088  RH  058%=      5-min Rain = 0
KWA1 120938Z 33002KT M02/M09 A3031 RMK A01 T10151088  RH  058%=      5-min Rain = 0
KWA1 120939Z 34003KT M01/M09 A3031 RMK A01 T10141088  RH  057%=      5-min Rain = 0
KWA1 120940Z 34003KT M01/M09 A3031 RMK A01 T10131088  RH  057%=      5-min Rain = 0
KWA1 120941Z 34003KT M01/M09 A3031 RMK A01 T10121088  RH  056%=      5-min Rain = 0
KWA1 120942Z 34003KT M01/M09 A3031 RMK A01 T10121088  RH  056%=      5-min Rain = 0
KWA1 120943Z 34004KT M01/M09 A3031 RMK A01 T10121089  RH  056%=      5-min Rain = 0
KWA1 120944Z 34004KT M01/M09 A3031 RMK A01 T10131089  RH  056%=      5-min Rain = 0
KWA1 120945Z 34005KT M01/M09 A3031 RMK A01 T10141089  RH  057%=      5-min Rain = 0
KWA1 120946Z 35005KT M02/M09 A3031 RMK A01 T10151089  RH  057%=      5-min Rain = 0
KWA1 120947Z 34005KT M02/M09 A3031 RMK A01 T10161090  RH  057%=      5-min Rain = 0
KWA1 120948Z 34005KT M02/M09 A3031 RMK A01 T10161089  RH  057%=      5-min Rain = 0
KWA1 120949Z 34005KT M01/M09 A3031 RMK A01 T10141088  RH  057%=      5-min Rain = 0
KWA1 120950Z 34005KT M01/M09 A3031 RMK A01 T10131089  RH  056%=      5-min Rain = 0
KWA1 120951Z 34005KT M01/M09 A3031 RMK A01 T10131089  RH  056%=      5-min Rain = 0
KWA1 120952Z 34005KT M01/M09 A3031 RMK A01 T10141091  RH  056%=      5-min Rain = 0
KWA1 120953Z 35005KT M02/M09 A3031 RMK A01 T10161091  RH  057%=      5-min Rain = 0
KWA1 120954Z 35005KT M02/M09 A3031 RMK A01 T10171091  RH  057%=      5-min Rain = 0
KWA1 120955Z 35005KT M02/M09 A3031 RMK A01 T10181091  RH  057%=      5-min Rain = 0
KWA1 120956Z 35005KT M02/M09 A3031 RMK A01 T10201092  RH  058%=      5-min Rain = 0
KWA1 120957Z 35004KT M02/M09 A3031 RMK A01 T10231093  RH  059%=      5-min Rain = 0
KWA1 120958Z 35004KT M03/M09 A3031 RMK A01 T10251092  RH  060%=      5-min Rain = 0
KWA1 120959Z 35004KT M03/M09 A3031 RMK A01 T10251092  RH  060%=      5-min Rain = 0
KWA1 121000Z 35003KT M03/M09 A3031 RMK A01 T10261092  RH  060%=      5-min Rain = 0
KWA1 121001Z 34003KT M02/M09 A3031 RMK A01 T10241091  RH  060%=      5-min Rain = 0
KWA1 121002Z 34003KT M02/M09 A3031 RMK A01 T10221090  RH  060%=      5-min Rain = 0
KWA1 121003Z 33003KT M02/M09 A3032 RMK A01 T10191089  RH  058%=      5-min Rain = 0
KWA1 121004Z 33004KT M02/M09 A3032 RMK A01 T10171091  RH  057%=      5-min Rain = 0
KWA1 121005Z 33004KT M02/M09 A3032 RMK A01 T10191092  RH  057%=      5-min Rain = 0
KWA1 121006Z 33004KT M02/M09 A3032 RMK A01 T10201093  RH  058%=      5-min Rain = 0
KWA1 121007Z 34004KT M02/M09 A3032 RMK A01 T10201093  RH  058%=      5-min Rain = 0
KWA1 121008Z 34004KT M02/M09 A3032 RMK A01 T10201092  RH  058%=      5-min Rain = 0
KWA1 121009Z 34004KT M02/M09 A3032 RMK A01 T10201092  RH  058%=      5-min Rain = 0
KWA1 121010Z 34004KT M02/M09 A3032 RMK A01 T10201092  RH  058%=      5-min Rain = 0
KWA1 121011Z 34004KT M02/M09 A3032 RMK A01 T10201092  RH  058%=      5-min Rain = 0
KWA1 121012Z 34004KT M02/M09 A3032 RMK A01 T10181092  RH  057%=      5-min Rain = 0
KWA1 121013Z 34004KT M02/M09 A3032 RMK A01 T10191092  RH  057%=      5-min Rain = 0
KWA1 121014Z 34004KT M02/M09 A3032 RMK A01 T10191092  RH  057%=      5-min Rain = 0
KWA1 121015Z 34003KT M02/M09 A3032 RMK A01 T10191092  RH  057%=      5-min Rain = 0
KWA1 121016Z 34003KT M02/M09 A3032 RMK A01 T10181092  RH  057%=      5-min Rain = 0
KWA1 121017Z 34003KT M02/M09 A3032 RMK A01 T10181092  RH  057%=      5-min Rain = 0
KWA1 121018Z 34003KT M02/M09 A3032 RMK A01 T10181092  RH  057%=      5-min Rain = 0
KWA1 121019Z 34003KT M02/M09 A3032 RMK A01 T10211093  RH  058%=      5-min Rain = 0
KWA1 121020Z 34003KT M03/M10 A3032 RMK A01 T10261095  RH  059%=      5-min Rain = 0
KWA1 121021Z 33003KT M03/M10 A3032 RMK A01 T10301095  RH  061%=      5-min Rain = 0
KWA1 121022Z 33004KT M03/M09 A3032 RMK A01 T10311094  RH  062%=      5-min Rain = 0
KWA1 121023Z 33004KT M03/M09 A3032 RMK A01 T10291092  RH  062%=      5-min Rain = 0
KWA1 121024Z 33004KT M03/M09 A3032 RMK A01 T10271091  RH  061%=      5-min Rain = 0
KWA1 121025Z 33004KT M03/M09 A3032 RMK A01 T10251091  RH  061%=      5-min Rain = 0
KWA1 121026Z 33004KT M03/M09 A3032 RMK A01 T10251091  RH  060%=      5-min Rain = 0
KWA1 121027Z 33004KT M02/M09 A3032 RMK A01 T10241091  RH  060%=      5-min Rain = 0
KWA1 121028Z 33004KT M03/M09 A3032 RMK A01 T10251093  RH  060%=      5-min Rain = 0
KWA1 121029Z 32004KT M03/M09 A3032 RMK A01 T10271094  RH  060%=      5-min Rain = 0
KWA1 121030Z 32004KT M03/M09 A3032 RMK A01 T10291094  RH  061%=      5-min Rain = 0
KWA1 121031Z 32004KT M03/M09 A3031 RMK A01 T10291094  RH  061%=      5-min Rain = 0
KWA1 121032Z 33003KT M03/M09 A3031 RMK A01 T10301094  RH  061%=      5-min Rain = 0
KWA1 121033Z 33003KT M03/M09 A3031 RMK A01 T10311094  RH  062%=      5-min Rain = 0
KWA1 121034Z 33004KT M03/M09 A3031 RMK A01 T10321094  RH  062%=      5-min Rain = 0
KWA1 121035Z 33003KT M03/M10 A3031 RMK A01 T10331095  RH  062%=      5-min Rain = 0
KWA1 121036Z 33003KT M03/M10 A3032 RMK A01 T10341095  RH  063%=      5-min Rain = 0
KWA1 121037Z 33004KT M03/M09 A3032 RMK A01 T10331094  RH  063%=      5-min Rain = 0
KWA1 121038Z 33004KT M03/M09 A3032 RMK A01 T10331094  RH  063%=      5-min Rain = 0
KWA1 121039Z 33004KT M03/M09 A3032 RMK A01 T10331094  RH  063%=      5-min Rain = 0
KWA1 121040Z 33004KT M03/M09 A3032 RMK A01 T10331094  RH  063%=      5-min Rain = 0
KWA1 121041Z 33003KT M03/M09 A3032 RMK A01 T10331094  RH  063%=      5-min Rain = 0
KWA1 121042Z 33003KT M03/M09 A3032 RMK A01 T10341094  RH  063%=      5-min Rain = 0
KWA1 121043Z 33004KT M04/M10 A3032 RMK A01 T10361095  RH  064%=      5-min Rain = 0
KWA1 121044Z 33004KT M04/M10 A3032 RMK A01 T10371095  RH  064%=      5-min Rain = 0
KWA1 121045Z 33004KT M04/M09 A3032 RMK A01 T10351093  RH  064%=      5-min Rain = 0
KWA1 121046Z 33004KT M03/M09 A3032 RMK A01 T10331092  RH  064%=      5-min Rain = 0
KWA1 121047Z 32004KT M03/M09 A3032 RMK A01 T10321093  RH  063%=      5-min Rain = 0
KWA1 121048Z 32005KT M03/M09 A3032 RMK A01 T10321093  RH  063%=      5-min Rain = 0
KWA1 121049Z 32004KT M03/M09 A3032 RMK A01 T10321093  RH  063%=      5-min Rain = 0
KWA1 121050Z 32004KT M03/M09 A3032 RMK A01 T10321093  RH  063%=      5-min Rain = 0
KWA1 121051Z 32004KT M03/M09 A3032 RMK A01 T10321093  RH  063%=      5-min Rain = 0
KWA1 121052Z 32004KT M03/M09 A3032 RMK A01 T10321093  RH  063%=      5-min Rain = 0
KWA1 121053Z 32004KT M03/M09 A3032 RMK A01 T10321093  RH  063%=      5-min Rain = 0
KWA1 121054Z 32004KT M03/M09 A3032 RMK A01 T10321093  RH  063%=      5-min Rain = 0
KWA1 121055Z 32004KT M03/M09 A3032 RMK A01 T10331093  RH  063%=      5-min Rain = 0
KWA1 121056Z 32003KT M03/M09 A3032 RMK A01 T10341094  RH  063%=      5-min Rain = 0
KWA1 121057Z 32003KT M04/M10 A3032 RMK A01 T10351095  RH  063%=      5-min Rain = 0
KWA1 121058Z 31003KT M04/M10 A3032 RMK A01 T10361096  RH  063%=      5-min Rain = 0
KWA1 121059Z 31003KT M04/M10 A3032 RMK A01 T10371096  RH  064%=      5-min Rain = 0
KWA1 121100Z 32003KT M04/M10 A3032 RMK A01 T10361095  RH  064%=      5-min Rain = 0
KWA1 121101Z 31003KT M04/M10 A3032 RMK A01 T10361095  RH  064%=      5-min Rain = 0
KWA1 121102Z 32003KT M04/M10 A3032 RMK A01 T10381095  RH  064%=      5-min Rain = 0
KWA1 121103Z 32003KT M04/M10 A3032 RMK A01 T10381095  RH  065%=      5-min Rain = 0
KWA1 121104Z 32003KT M04/M09 A3032 RMK A01 T10361093  RH  065%=      5-min Rain = 0
KWA1 121105Z 32003KT M03/M09 A3032 RMK A01 T10331092  RH  064%=      5-min Rain = 0
KWA1 121106Z 32003KT M03/M09 A3032 RMK A01 T10321093  RH  062%=      5-min Rain = 0
KWA1 121107Z 32003KT M03/M09 A3032 RMK A01 T10311094  RH  062%=      5-min Rain = 0
KWA1 121108Z 32003KT M03/M09 A3032 RMK A01 T10291094  RH  061%=      5-min Rain = 0
KWA1 121109Z 33003KT M03/M09 A3032 RMK A01 T10281094  RH  060%=      5-min Rain = 0
KWA1 121110Z 33003KT M03/M09 A3032 RMK A01 T10271094  RH  060%=      5-min Rain = 0
KWA1 121111Z 33003KT M03/M09 A3032 RMK A01 T10261094  RH  060%=      5-min Rain = 0
KWA1 121112Z 33003KT M03/M10 A3032 RMK A01 T10261095  RH  059%=      5-min Rain = 0
KWA1 121113Z 33003KT M03/M09 A3032 RMK A01 T10261094  RH  059%=      5-min Rain = 0
KWA1 121114Z 33004KT M03/M09 A3032 RMK A01 T10261094  RH  059%=      5-min Rain = 0
KWA1 121115Z 33004KT M03/M09 A3032 RMK A01 T10261094  RH  059%=      5-min Rain = 0
KWA1 121116Z 33004KT M03/M09 A3032 RMK A01 T10261094  RH  060%=      5-min Rain = 0
KWA1 121117Z 33004KT M03/M10 A3032 RMK A01 T10281095  RH  060%=      5-min Rain = 0
KWA1 121118Z 33004KT M03/M10 A3032 RMK A01 T10281095  RH  060%=      5-min Rain = 0
KWA1 121119Z 33004KT M03/M09 A3032 RMK A01 T10291094  RH  061%=      5-min Rain = 0
KWA1 121120Z 32004KT M03/M10 A3032 RMK A01 T10291095  RH  061%=      5-min Rain = 0
KWA1 121121Z 32003KT M03/M10 A3032 RMK A01 T10291095  RH  061%=      5-min Rain = 0
KWA1 121122Z 32003KT M03/M10 A3032 RMK A01 T10301096  RH  060%=      5-min Rain = 0
KWA1 121123Z 32004KT M03/M10 A3032 RMK A01 T10321097  RH  061%=      5-min Rain = 0
KWA1 121124Z 32003KT M03/M10 A3032 RMK A01 T10331097  RH  061%=      5-min Rain = 0
KWA1 121125Z 32003KT M03/M10 A3032 RMK A01 T10341097  RH  062%=      5-min Rain = 0
KWA1 121126Z 32003KT M03/M10 A3031 RMK A01 T10341096  RH  062%=      5-min Rain = 0
KWA1 121127Z 32003KT M03/M10 A3031 RMK A01 T10331095  RH  062%=      5-min Rain = 0
KWA1 121128Z 33003KT M03/M10 A3031 RMK A01 T10321095  RH  062%=      5-min Rain = 0
KWA1 121129Z 33004KT M03/M10 A3031 RMK A01 T10321095  RH  062%=      5-min Rain = 0
KWA1 121130Z 32004KT M03/M10 A3031 RMK A01 T10321095  RH  062%=      5-min Rain = 0
KWA1 121131Z 32004KT M03/M10 A3032 RMK A01 T10321095  RH  062%=      5-min Rain = 0
KWA1 121132Z 33004KT M03/M10 A3032 RMK A01 T10321095  RH  062%=      5-min Rain = 0
KWA1 121133Z 33004KT M03/M10 A3032 RMK A01 T10301095  RH  061%=      5-min Rain = 0
KWA1 121134Z 34004KT M03/M10 A3032 RMK A01 T10291095  RH  060%=      5-min Rain = 0
KWA1 121135Z 34004KT M03/M10 A3032 RMK A01 T10281096  RH  059%=      5-min Rain = 0
KWA1 121136Z 34004KT M03/M10 A3032 RMK A01 T10271096  RH  059%=      5-min Rain = 0
KWA1 121137Z 34004KT M03/M10 A3031 RMK A01 T10271097  RH  059%=      5-min Rain = 0
KWA1 121138Z 34004KT M03/M10 A3031 RMK A01 T10261097  RH  058%=      5-min Rain = 0
KWA1 121139Z 35004KT M03/M10 A3031 RMK A01 T10261097  RH  058%=      5-min Rain = 0
KWA1 121140Z 36003KT M03/M10 A3031 RMK A01 T10251096  RH  058%=      5-min Rain = 0
KWA1 121141Z 36004KT M02/M10 A3031 RMK A01 T10241097  RH  058%=      5-min Rain = 0
KWA1 121142Z 00004KT M02/M10 A3031 RMK A01 T10241097  RH  057%=      5-min Rain = 0
KWA1 121143Z 00004KT M02/M10 A3031 RMK A01 T10241096  RH  058%=      5-min Rain = 0
KWA1 121144Z 00004KT M03/M10 A3031 RMK A01 T10251097  RH  058%=      5-min Rain = 0
KWA1 121145Z 00004KT M03/M10 A3031 RMK A01 T10261098  RH  058%=      5-min Rain = 0
KWA1 121146Z 00004KT M03/M10 A3031 RMK A01 T10281098  RH  058%=      5-min Rain = 0
KWA1 121147Z 00004KT M03/M10 A3031 RMK A01 T10281098  RH  059%=      5-min Rain = 0
KWA1 121148Z 00004KT M03/M10 A3031 RMK A01 T10291097  RH  059%=      5-min Rain = 0
KWA1 121149Z 01004KT M03/M10 A3031 RMK A01 T10291097  RH  059%=      5-min Rain = 0
KWA1 121150Z 02004KT M03/M10 A3031 RMK A01 T10291098  RH  059%=      5-min Rain = 0
KWA1 121151Z 02004KT M03/M10 A3031 RMK A01 T10291097  RH  059%=      5-min Rain = 0
KWA1 121152Z 02004KT M03/M10 A3031 RMK A01 T10291097  RH  059%=      5-min Rain = 0
KWA1 121153Z 02004KT M03/M10 A3031 RMK A01 T10291097  RH  060%=      5-min Rain = 0
KWA1 121154Z 02004KT M03/M10 A3031 RMK A01 T10301097  RH  060%=      5-min Rain = 0
KWA1 121155Z 02004KT M03/M10 A3031 RMK A01 T10311097  RH  060%=      5-min Rain = 0
KWA1 121156Z 02004KT M03/M10 A3031 RMK A01 T10311096  RH  061%=      5-min Rain = 0
KWA1 121157Z 02003KT M03/M10 A3031 RMK A01 T10311096  RH  061%=      5-min Rain = 0
KWA1 121158Z 02003KT M03/M10 A3031 RMK A01 T10311096  RH  061%=      5-min Rain = 0
KWA1 121159Z 02003KT M03/M10 A3031 RMK A01 T10311096  RH  060%=      5-min Rain = 0
KWA1 121200Z 02003KT M03/M10 A3031 RMK A01 T10301096  RH  060%=      5-min Rain = 0
KWA1 121201Z 02003KT M03/M10 A3031 RMK A01 T10301096  RH  060%=      5-min Rain = 0
KWA1 121202Z 02003KT M03/M10 A3031 RMK A01 T10301096  RH  060%=      5-min Rain = 0
KWA1 121203Z 02003KT M03/M10 A3031 RMK A01 T10301097  RH  060%=      5-min Rain = 0
KWA1 121204Z 01004KT M03/M10 A3031 RMK A01 T10301097  RH  060%=      5-min Rain = 0
KWA1 121205Z 02004KT M03/M10 A3031 RMK A01 T10301096  RH  060%=      5-min Rain = 0
KWA1 121206Z 02004KT M03/M10 A3031 RMK A01 T10301097  RH  060%=      5-min Rain = 0
KWA1 121207Z 02004KT M03/M10 A3031 RMK A01 T10301097  RH  060%=      5-min Rain = 0
KWA1 121208Z 01004KT M03/M10 A3031 RMK A01 T10301097  RH  060%=      5-min Rain = 0
KWA1 121209Z 01004KT M03/M10 A3031 RMK A01 T10301096  RH  060%=      5-min Rain = 0
KWA1 121210Z 01004KT M03/M10 A3031 RMK A01 T10301096  RH  060%=      5-min Rain = 0
KWA1 121211Z 02005KT M03/M10 A3031 RMK A01 T10301096  RH  060%=      5-min Rain = 0
KWA1 121212Z 02005KT M03/M10 A3031 RMK A01 T10301096  RH  060%=      5-min Rain = 0
KWA1 121213Z 02005KT M03/M10 A3031 RMK A01 T10301096  RH  060%=      5-min Rain = 0
KWA1 121214Z 02004KT M03/M10 A3032 RMK A01 T10301096  RH  061%=      5-min Rain = 0
KWA1 121215Z 02004KT M03/M10 A3032 RMK A01 T10311096  RH  061%=      5-min Rain = 0
KWA1 121216Z 02004KT M03/M10 A3032 RMK A01 T10311096  RH  061%=      5-min Rain = 0
KWA1 121217Z 02004KT M03/M10 A3032 RMK A01 T10311096  RH  061%=      5-min Rain = 0
KWA1 121218Z 02004KT M03/M10 A3032 RMK A01 T10321097  RH  061%=      5-min Rain = 0
KWA1 121219Z 02004KT M03/M10 A3032 RMK A01 T10321096  RH  061%=      5-min Rain = 0
KWA1 121220Z 03005KT M03/M10 A3032 RMK A01 T10311096  RH  061%=      5-min Rain = 0
KWA1 121221Z 03005KT M03/M10 A3032 RMK A01 T10321096  RH  061%=      5-min Rain = 0
KWA1 121222Z 03005KT M03/M10 A3032 RMK A01 T10331097  RH  061%=      5-min Rain = 0
KWA1 121223Z 03005KT M03/M10 A3032 RMK A01 T10331097  RH  062%=      5-min Rain = 0
KWA1 121224Z 03004KT M03/M10 A3032 RMK A01 T10331096  RH  062%=      5-min Rain = 0
KWA1 121225Z 03004KT M03/M10 A3032 RMK A01 T10341097  RH  062%=      5-min Rain = 0
KWA1 121226Z 03004KT M03/M10 A3032 RMK A01 T10341097  RH  062%=      5-min Rain = 0
KWA1 121227Z 03004KT M03/M10 A3032 RMK A01 T10331096  RH  062%=      5-min Rain = 0
KWA1 121228Z 03005KT M03/M10 A3032 RMK A01 T10331096  RH  062%=      5-min Rain = 0
KWA1 121229Z 03004KT M03/M10 A3032 RMK A01 T10331096  RH  062%=      5-min Rain = 0
KWA1 121230Z 03004KT M03/M10 A3032 RMK A01 T10341097  RH  062%=      5-min Rain = 0
KWA1 121231Z 03004KT M03/M10 A3032 RMK A01 T10341097  RH  062%=      5-min Rain = 0
KWA1 121232Z 02004KT M03/M10 A3032 RMK A01 T10341097  RH  062%=      5-min Rain = 0
KWA1 121233Z 02004KT M03/M10 A3032 RMK A01 T10341096  RH  062%=      5-min Rain = 0
KWA1 121234Z 02004KT M04/M10 A3032 RMK A01 T10351097  RH  062%=      5-min Rain = 0
KWA1 121235Z 02004KT M04/M10 A3032 RMK A01 T10351097  RH  062%=      5-min Rain = 0
KWA1 121236Z 02004KT M04/M10 A3032 RMK A01 T10351096  RH  062%=      5-min Rain = 0
KWA1 121237Z 03004KT M04/M10 A3032 RMK A01 T10351097  RH  062%=      5-min Rain = 0
KWA1 121238Z 03004KT M04/M10 A3032 RMK A01 T10351097  RH  062%=      5-min Rain = 0
KWA1 121239Z 03004KT M04/M10 A3032 RMK A01 T10351096  RH  063%=      5-min Rain = 0
KWA1 121240Z 03003KT M04/M10 A3032 RMK A01 T10351096  RH  063%=      5-min Rain = 0
KWA1 121241Z 03003KT M04/M10 A3032 RMK A01 T10351096  RH  063%=      5-min Rain = 0
KWA1 121242Z 03003KT M04/M10 A3032 RMK A01 T10351096  RH  063%=      5-min Rain = 0
KWA1 121243Z 03003KT M04/M10 A3032 RMK A01 T10351096  RH  063%=      5-min Rain = 0
KWA1 121244Z 03003KT M04/M10 A3032 RMK A01 T10351097  RH  063%=      5-min Rain = 0
KWA1 121245Z 03003KT M04/M10 A3032 RMK A01 T10361097  RH  063%=      5-min Rain = 0
KWA1 121246Z 03003KT M04/M10 A3032 RMK A01 T10361097  RH  063%=      5-min Rain = 0
KWA1 121247Z 03003KT M04/M10 A3032 RMK A01 T10381096  RH  064%=      5-min Rain = 0
KWA1 121248Z 03002KT M04/M10 A3032 RMK A01 T10401096  RH  065%=      5-min Rain = 0
KWA1 121249Z 03002KT M04/M10 A3032 RMK A01 T10421096  RH  066%=      5-min Rain = 0
KWA1 121250Z 36002KT M04/M10 A3032 RMK A01 T10441096  RH  067%=      5-min Rain = 0
KWA1 121251Z 31003KT M05/M10 A3032 RMK A01 T10481099  RH  067%=      5-min Rain = 0
KWA1 121252Z 31003KT M05/M10 A3032 RMK A01 T10531104  RH  068%=      5-min Rain = 0
KWA1 121253Z 31003KT M06/M10 A3032 RMK A01 T10551102  RH  070%=      5-min Rain = 0
KWA1 121254Z 32003KT M06/M10 A3032 RMK A01 T10561101  RH  071%=      5-min Rain = 0
KWA1 121255Z 31002KT M06/M10 A3032 RMK A01 T10561100  RH  071%=      5-min Rain = 0
KWA1 121256Z 30003KT M05/M10 A3032 RMK A01 T10541098  RH  071%=      5-min Rain = 0
KWA1 121257Z 30003KT M05/M10 A3032 RMK A01 T10531097  RH  071%=      5-min Rain = 0
KWA1 121258Z 30003KT M05/M10 A3032 RMK A01 T10531098  RH  071%=      5-min Rain = 0
KWA1 121259Z 29002KT M05/M10 A3032 RMK A01 T10531099  RH  070%=      5-min Rain = 0
KWA1 121300Z 29002KT M05/M10 A3032 RMK A01 T10531099  RH  070%=      5-min Rain = 0
KWA1 121301Z 29002KT M05/M10 A3032 RMK A01 T10531100  RH  070%=      5-min Rain = 0
KWA1 121302Z 29002KT M05/M10 A3032 RMK A01 T10521099  RH  070%=      5-min Rain = 0
KWA1 121303Z 29002KT M05/M10 A3032 RMK A01 T10511098  RH  070%=      5-min Rain = 0
KWA1 121304Z 29002KT M05/M10 A3032 RMK A01 T10511098  RH  069%=      5-min Rain = 0
KWA1 121305Z 28002KT M05/M10 A3032 RMK A01 T10491098  RH  069%=      5-min Rain = 0
KWA1 121306Z 27002KT M05/M10 A3032 RMK A01 T10481098  RH  068%=      5-min Rain = 0
KWA1 121307Z 27001KT M05/M10 A3032 RMK A01 T10501100  RH  068%=      5-min Rain = 0
KWA1 121308Z 26001KT M05/M10 A3032 RMK A01 T10541103  RH  068%=      5-min Rain = 0
KWA1 121309Z 26001KT M06/M10 A3032 RMK A01 T10561102  RH  070%=      5-min Rain = 0
KWA1 121310Z 26001KT M06/M10 A3032 RMK A01 T10551100  RH  071%=      5-min Rain = 0
KWA1 121311Z 26000KT M05/M10 A3032 RMK A01 T10531097  RH  071%=      5-min Rain = 0
KWA1 121312Z 26000KT M05/M10 A3032 RMK A01 T10501096  RH  071%=      5-min Rain = 0
KWA1 121313Z 26000KT M05/M10 A3032 RMK A01 T10491096  RH  069%=      5-min Rain = 0
KWA1 121314Z 26001KT M05/M10 A3032 RMK A01 T10471096  RH  069%=      5-min Rain = 0
KWA1 121315Z 26000KT M05/M10 A3032 RMK A01 T10461096  RH  068%=      5-min Rain = 0
KWA1 121316Z 26000KT M05/M10 A3033 RMK A01 T10451096  RH  067%=      5-min Rain = 0
KWA1 121317Z 26000KT M04/M10 A3033 RMK A01 T10431095  RH  067%=      5-min Rain = 0
KWA1 121318Z 26000KT M04/M10 A3033 RMK A01 T10411095  RH  066%=      5-min Rain = 0
KWA1 121319Z 26000KT M04/M10 A3033 RMK A01 T10391095  RH  065%=      5-min Rain = 0
KWA1 121320Z 26001KT M04/M10 A3033 RMK A01 T10401097  RH  065%=      5-min Rain = 0
KWA1 121321Z 26001KT M04/M10 A3033 RMK A01 T10421098  RH  065%=      5-min Rain = 0
KWA1 121322Z 26002KT M04/M10 A3033 RMK A01 T10431097  RH  066%=      5-min Rain = 0
KWA1 121323Z 26002KT M04/M10 A3033 RMK A01 T10421096  RH  066%=      5-min Rain = 0
KWA1 121324Z 26002KT M04/M10 A3033 RMK A01 T10421097  RH  065%=      5-min Rain = 0
KWA1 121325Z 26002KT M05/M10 A3033 RMK A01 T10451099  RH  066%=      5-min Rain = 0
KWA1 121326Z 26003KT M05/M10 A3033 RMK A01 T10481100  RH  067%=      5-min Rain = 0
KWA1 121327Z 26003KT M05/M10 A3033 RMK A01 T10521101  RH  068%=      5-min Rain = 0
KWA1 121328Z 26003KT M06/M10 A3033 RMK A01 T10551100  RH  070%=      5-min Rain = 0
KWA1 121329Z 26003KT M06/M10 A3033 RMK A01 T10561100  RH  072%=      5-min Rain = 0
KWA1 121330Z 26003KT M06/M10 A3033 RMK A01 T10571100  RH  072%=      5-min Rain = 0
KWA1 121331Z 25003KT M06/M10 A3033 RMK A01 T10591101  RH  072%=      5-min Rain = 0
KWA1 121332Z 25004KT M06/M10 A3033 RMK A01 T10611102  RH  073%=      5-min Rain = 0
KWA1 121333Z 24004KT M06/M10 A3033 RMK A01 T10621101  RH  074%=      5-min Rain = 0
KWA1 121334Z 24004KT M06/M10 A3033 RMK A01 T10631101  RH  074%=      5-min Rain = 0
KWA1 121335Z 24004KT M06/M10 A3033 RMK A01 T10641102  RH  075%=      5-min Rain = 0
KWA1 121336Z 24004KT M07/M10 A3033 RMK A01 T10661102  RH  075%=      5-min Rain = 0
KWA1 121337Z 24004KT M07/M10 A3033 RMK A01 T10661102  RH  076%=      5-min Rain = 0
KWA1 121338Z 24004KT M07/M10 A3033 RMK A01 T10661101  RH  076%=      5-min Rain = 0
KWA1 121339Z 24004KT M07/M10 A3033 RMK A01 T10671102  RH  076%=      5-min Rain = 0
KWA1 121340Z 24005KT M07/M10 A3033 RMK A01 T10671102  RH  076%=      5-min Rain = 0
KWA1 121341Z 25005KT M07/M10 A3033 RMK A01 T10661100  RH  077%=      5-min Rain = 0
KWA1 121342Z 25005KT M06/M10 A3033 RMK A01 T10641098  RH  076%=      5-min Rain = 0
KWA1 121343Z 25005KT M06/M10 A3033 RMK A01 T10621099  RH  075%=      5-min Rain = 0
KWA1 121344Z 24004KT M06/M10 A3034 RMK A01 T10621100  RH  075%=      5-min Rain = 0
KWA1 121345Z 24004KT M06/M10 A3034 RMK A01 T10631101  RH  075%=      5-min Rain = 0
KWA1 121346Z 24004KT M06/M10 A3034 RMK A01 T10641101  RH  075%=      5-min Rain = 0
KWA1 121347Z 24004KT M06/M10 A3034 RMK A01 T10641101  RH  075%=      5-min Rain = 0
KWA1 121348Z 23004KT M07/M10 A3034 RMK A01 T10651101  RH  076%=      5-min Rain = 0
KWA1 121349Z 23004KT M07/M10 A3034 RMK A01 T10661101  RH  076%=      5-min Rain = 0
KWA1 121350Z 24005KT M07/M10 A3034 RMK A01 T10661101  RH  076%=      5-min Rain = 0
KWA1 121351Z 24005KT M07/M10 A3034 RMK A01 T10661101  RH  076%=      5-min Rain = 0
KWA1 121352Z 24005KT M07/M10 A3034 RMK A01 T10651100  RH  076%=      5-min Rain = 0
KWA1 121353Z 24005KT M06/M10 A3034 RMK A01 T10641100  RH  076%=      5-min Rain = 0
KWA1 121354Z 23005KT M07/M10 A3034 RMK A01 T10651101  RH  075%=      5-min Rain = 0
KWA1 121355Z 23005KT M06/M10 A3034 RMK A01 T10641101  RH  075%=      5-min Rain = 0
KWA1 121356Z 23005KT M07/M10 A3034 RMK A01 T10651101  RH  076%=      5-min Rain = 0
KWA1 121357Z 23005KT M07/M10 A3034 RMK A01 T10651100  RH  076%=      5-min Rain = 0
KWA1 121358Z 23005KT M07/M10 A3034 RMK A01 T10651099  RH  077%=      5-min Rain = 0
KWA1 121359Z 23005KT M07/M10 A3034 RMK A01 T10651098  RH  077%=      5-min Rain = 0
KWA1 121400Z 23005KT M06/M10 A3034 RMK A01 T10641098  RH  077%=      5-min Rain = 0
KWA1 121401Z 23004KT M06/M10 A3034 RMK A01 T10631097  RH  077%=      5-min Rain = 0
KWA1 121402Z 23004KT M06/M10 A3034 RMK A01 T10641097  RH  077%=      5-min Rain = 0
KWA1 121403Z 23005KT M06/M10 A3034 RMK A01 T10631097  RH  077%=      5-min Rain = 0
KWA1 121404Z 23005KT M06/M10 A3034 RMK A01 T10631096  RH  077%=      5-min Rain = 0
KWA1 121405Z 23005KT M06/M10 A3034 RMK A01 T10621095  RH  078%=      5-min Rain = 0
KWA1 121406Z 23004KT M06/M09 A3034 RMK A01 T10611094  RH  078%=      5-min Rain = 0
KWA1 121407Z 23004KT M06/M09 A3034 RMK A01 T10591092  RH  078%=      5-min Rain = 0
KWA1 121408Z 23004KT M06/M09 A3034 RMK A01 T10581091  RH  078%=      5-min Rain = 0
KWA1 121409Z 23005KT M06/M09 A3034 RMK A01 T10561090  RH  077%=      5-min Rain = 0
KWA1 121410Z 23005KT M06/M09 A3034 RMK A01 T10551089  RH  077%=      5-min Rain = 0
KWA1 121411Z 23005KT M05/M09 A3034 RMK A01 T10541089  RH  077%=      5-min Rain = 0
KWA1 121412Z 23005KT M05/M09 A3034 RMK A01 T10531088  RH  076%=      5-min Rain = 0
KWA1 121413Z 24005KT M05/M09 A3034 RMK A01 T10521088  RH  076%=      5-min Rain = 0
KWA1 121414Z 24004KT M05/M09 A3034 RMK A01 T10511087  RH  076%=      5-min Rain = 0
KWA1 121415Z 24004KT M05/M09 A3034 RMK A01 T10501087  RH  075%=      5-min Rain = 0
KWA1 121416Z 24004KT M05/M09 A3034 RMK A01 T10481087  RH  075%=      5-min Rain = 0
KWA1 121417Z 24004KT M05/M09 A3034 RMK A01 T10471087  RH  074%=      5-min Rain = 0
KWA1 121418Z 24004KT M05/M09 A3034 RMK A01 T10461086  RH  074%=      5-min Rain = 0
KWA1 121419Z 24004KT M05/M09 A3035 RMK A01 T10451085  RH  074%=      5-min Rain = 0
KWA1 121420Z 24004KT M04/M08 A3035 RMK A01 T10441083  RH  074%=      5-min Rain = 0
KWA1 121421Z 24004KT M04/M08 A3035 RMK A01 T10431083  RH  073%=      5-min Rain = 0
KWA1 121422Z 25004KT M04/M08 A3035 RMK A01 T10411084  RH  072%=      5-min Rain = 0
KWA1 121423Z 25004KT M04/M09 A3035 RMK A01 T10401085  RH  071%=      5-min Rain = 0
KWA1 121424Z 25004KT M04/M09 A3035 RMK A01 T10381085  RH  070%=      5-min Rain = 0
KWA1 121425Z 24004KT M04/M08 A3035 RMK A01 T10381084  RH  070%=      5-min Rain = 0
KWA1 121426Z 24004KT M04/M08 A3035 RMK A01 T10371081  RH  071%=      5-min Rain = 0
KWA1 121427Z 24004KT M04/M08 A3035 RMK A01 T10351079  RH  071%=      5-min Rain = 0
KWA1 121428Z 24004KT M03/M08 A3035 RMK A01 T10331077  RH  072%=      5-min Rain = 0
KWA1 121429Z 24004KT M03/M08 A3035 RMK A01 T10311077  RH  070%=      5-min Rain = 0
KWA1 121430Z 24003KT M03/M08 A3035 RMK A01 T10301078  RH  069%=      5-min Rain = 0
KWA1 121431Z 25004KT M03/M08 A3035 RMK A01 T10291078  RH  069%=      5-min Rain = 0
KWA1 121432Z 25004KT M03/M08 A3035 RMK A01 T10281078  RH  068%=      5-min Rain = 0
KWA1 121433Z 25003KT M03/M08 A3035 RMK A01 T10261077  RH  068%=      5-min Rain = 0
KWA1 121434Z 24004KT M02/M08 A3035 RMK A01 T10241075  RH  068%=      5-min Rain = 0
KWA1 121435Z 24004KT M02/M08 A3035 RMK A01 T10231077  RH  066%=      5-min Rain = 0
KWA1 121436Z 24004KT M02/M08 A3035 RMK A01 T10221078  RH  065%=      5-min Rain = 0
KWA1 121437Z 24004KT M02/M08 A3035 RMK A01 T10211077  RH  065%=      5-min Rain = 0
KWA1 121438Z 23003KT M02/M08 A3035 RMK A01 T10201076  RH  066%=      5-min Rain = 0
KWA1 121439Z 23003KT M02/M08 A3035 RMK A01 T10191077  RH  064%=      5-min Rain = 0
KWA1 121440Z 24003KT M02/M08 A3035 RMK A01 T10181076  RH  065%=      5-min Rain = 0
KWA1 121441Z 24003KT M02/M08 A3035 RMK A01 T10181076  RH  064%=      5-min Rain = 0
KWA1 121442Z 24004KT M02/M08 A3035 RMK A01 T10171077  RH  064%=      5-min Rain = 0
KWA1 121443Z 24004KT M02/M08 A3035 RMK A01 T10161078  RH  063%=      5-min Rain = 0
KWA1 121444Z 24003KT M02/M08 A3035 RMK A01 T10161080  RH  062%=      5-min Rain = 0
KWA1 121445Z 24003KT M02/M08 A3035 RMK A01 T10161078  RH  062%=      5-min Rain = 0
KWA1 121446Z 25003KT M02/M08 A3035 RMK A01 T10161079  RH  062%=      5-min Rain = 0
KWA1 121447Z 24003KT M02/M08 A3035 RMK A01 T10151077  RH  063%=      5-min Rain = 0
KWA1 121448Z 25003KT M02/M08 A3035 RMK A01 T10151077  RH  062%=      5-min Rain = 0
KWA1 121449Z 25004KT M01/M08 A3035 RMK A01 T10131076  RH  063%=      5-min Rain = 0
KWA1 121450Z 25004KT M01/M08 A3035 RMK A01 T10131076  RH  062%=      5-min Rain = 0
KWA1 121451Z 25003KT M01/M08 A3035 RMK A01 T10131078  RH  061%=      5-min Rain = 0
KWA1 121452Z 24003KT M01/M08 A3035 RMK A01 T10121077  RH  061%=      5-min Rain = 0
KWA1 121453Z 25003KT M01/M08 A3035 RMK A01 T10121078  RH  061%=      5-min Rain = 0
KWA1 121454Z 25003KT M01/M08 A3035 RMK A01 T10111078  RH  060%=      5-min Rain = 0
KWA1 121455Z 25003KT M01/M08 A3035 RMK A01 T10111078  RH  060%=      5-min Rain = 0
KWA1 121456Z 25002KT M01/M08 A3035 RMK A01 T10101075  RH  061%=      5-min Rain = 0
KWA1 121457Z 25003KT M01/M08 A3035 RMK A01 T10091075  RH  061%=      5-min Rain = 0
KWA1 121458Z 25003KT M01/M08 A3035 RMK A01 T10091077  RH  060%=      5-min Rain = 0
KWA1 121459Z 26003KT M01/M07 A3035 RMK A01 T10081074  RH  061%=      5-min Rain = 0
KWA1 121500Z 26003KT M01/M08 A3035 RMK A01 T10081075  RH  060%=      5-min Rain = 0
KWA1 121501Z 26002KT M01/M07 A3035 RMK A01 T10071074  RH  061%=      5-min Rain = 0
KWA1 121502Z 26002KT M01/M08 A3035 RMK A01 T10061075  RH  060%=      5-min Rain = 0
KWA1 121503Z 25002KT M01/M08 A3035 RMK A01 T10061076  RH  059%=      5-min Rain = 0
KWA1 121504Z 25002KT M01/M08 A3035 RMK A01 T10061076  RH  059%=      5-min Rain = 0
KWA1 121505Z 26002KT M01/M07 A3035 RMK A01 T10051073  RH  060%=      5-min Rain = 0
KWA1 121506Z 26002KT M00/M07 A3035 RMK A01 T10041073  RH  060%=      5-min Rain = 0
KWA1 121507Z 26002KT M00/M07 A3035 RMK A01 T10031074  RH  059%=      5-min Rain = 0
KWA1 121508Z 27002KT M00/M07 A3035 RMK A01 T10031072  RH  060%=      5-min Rain = 0
KWA1 121509Z 28002KT M00/M07 A3035 RMK A01 T10021073  RH  059%=      5-min Rain = 0
KWA1 121510Z 27002KT M00/M07 A3035 RMK A01 T10011073  RH  058%=      5-min Rain = 0
KWA1 121511Z 26002KT M00/M08 A3035 RMK A01 T10011075  RH  057%=      5-min Rain = 0
KWA1 121512Z 26002KT M00/M07 A3035 RMK A01 T10011072  RH  059%=      5-min Rain = 0
KWA1 121513Z 26002KT 00/07 A3035 RMK A01 T00-00-70  RH  059%=      5-min Rain = 0
KWA1 121514Z 25002KT 00/M07 A3036 RMK A01 T00011071  RH  059%=      5-min Rain = 0
KWA1 121515Z 27003KT 00/M07 A3035 RMK A01 T00011071  RH  059%=      5-min Rain = 0
KWA1 121516Z 27003KT 00/M07 A3035 RMK A01 T00011073  RH  058%=      5-min Rain = 0
KWA1 121517Z 26002KT 00/M07 A3035 RMK A01 T00011074  RH  057%=      5-min Rain = 0
KWA1 121518Z 26002KT 00/07 A3035 RMK A01 T00000-74  RH  057%=      5-min Rain = 0
KWA1 121519Z 24001KT 00/M07 A3036 RMK A01 T00011074  RH  057%=      5-min Rain = 0
KWA1 121520Z 22001KT 00/M07 A3036 RMK A01 T00021074  RH  057%=      5-min Rain = 0
KWA1 121521Z 22001KT 00/M08 A3036 RMK A01 T00021075  RH  056%=      5-min Rain = 0
KWA1 121522Z 20000KT 00/M07 A3036 RMK A01 T00031074  RH  056%=      5-min Rain = 0
KWA1 121523Z 28000KT 00/M07 A3036 RMK A01 T00041074  RH  056%=      5-min Rain = 0
KWA1 121524Z 32001KT 01/M08 A3036 RMK A01 T00051075  RH  055%=      5-min Rain = 0
KWA1 121525Z 34002KT 01/M08 A3036 RMK A01 T00061076  RH  054%=      5-min Rain = 0
KWA1 121526Z 34000KT 01/M08 A3036 RMK A01 T00061077  RH  054%=      5-min Rain = 0
KWA1 121527Z 00000KT 01/M08 A3036 RMK A01 T00061077  RH  054%=      5-min Rain = 0
KWA1 121528Z 25000KT 01/M08 A3036 RMK A01 T00071077  RH  053%=      5-min Rain = 0
KWA1 121529Z 28001KT 01/M08 A3036 RMK A01 T00081076  RH  053%=      5-min Rain = 0
KWA1 121530Z 27001KT 01/M08 A3036 RMK A01 T00081076  RH  053%=      5-min Rain = 0
KWA1 121531Z 26001KT 01/M08 A3036 RMK A01 T00081077  RH  053%=      5-min Rain = 0
KWA1 121532Z 25001KT 01/M08 A3036 RMK A01 T00081077  RH  053%=      5-min Rain = 0
KWA1 121533Z 28001KT 01/M07 A3036 RMK A01 T00091073  RH  054%=      5-min Rain = 0
KWA1 121534Z 30001KT 01/M07 A3036 RMK A01 T00111073  RH  054%=      5-min Rain = 0
KWA1 121535Z 29002KT 01/M07 A3036 RMK A01 T00111074  RH  053%=      5-min Rain = 0
KWA1 121536Z 30002KT 01/M08 A3036 RMK A01 T00111076  RH  052%=      5-min Rain = 0
KWA1 121537Z 32001KT 01/M08 A3036 RMK A01 T00111077  RH  052%=      5-min Rain = 0
KWA1 121538Z 33000KT 01/M08 A3036 RMK A01 T00121078  RH  051%=      5-min Rain = 0
KWA1 121539Z 35000KT 01/M08 A3036 RMK A01 T00121078  RH  051%=      5-min Rain = 0
KWA1 121540Z 01001KT 01/M07 A3036 RMK A01 T00141074  RH  052%=      5-min Rain = 0
KWA1 121541Z 00001KT 02/M07 A3036 RMK A01 T00171072  RH  052%=      5-min Rain = 0
KWA1 121542Z 00000KT 02/M07 A3036 RMK A01 T00171073  RH  051%=      5-min Rain = 0
KWA1 121543Z 00001KT 02/M07 A3036 RMK A01 T00171074  RH  051%=      5-min Rain = 0
KWA1 121544Z 35001KT 02/M07 A3036 RMK A01 T00171072  RH  051%=      5-min Rain = 0
KWA1 121545Z 35001KT 02/M07 A3036 RMK A01 T00181073  RH  051%=      5-min Rain = 0
KWA1 121546Z 35001KT 02/M07 A3036 RMK A01 T00191071  RH  051%=      5-min Rain = 0
KWA1 121547Z 33000KT 02/M07 A3036 RMK A01 T00191070  RH  052%=      5-min Rain = 0
KWA1 121548Z 31001KT 02/M07 A3036 RMK A01 T00201071  RH  051%=      5-min Rain = 0
KWA1 121549Z 30001KT 02/M07 A3036 RMK A01 T00201070  RH  051%=      5-min Rain = 0
KWA1 121550Z 31001KT 02/M07 A3037 RMK A01 T00201069  RH  052%=      5-min Rain = 0
KWA1 121551Z 24000KT 02/M07 A3037 RMK A01 T00211070  RH  051%=      5-min Rain = 0
KWA1 121552Z 00000KT 02/M07 A3037 RMK A01 T00211073  RH  050%=      5-min Rain = 0
KWA1 121553Z 00000KT 02/M07 A3037 RMK A01 T00221071  RH  050%=      5-min Rain = 0
KWA1 121554Z 20000KT 03/M07 A3037 RMK A01 T00251065  RH  051%=      5-min Rain = 0
KWA1 121555Z 14000KT 03/M06 A3037 RMK A01 T00291062  RH  051%=      5-min Rain = 0
KWA1 121556Z 12001KT 03/M06 A3037 RMK A01 T00321062  RH  050%=      5-min Rain = 0
KWA1 121557Z 15000KT 03/M07 A3037 RMK A01 T00331068  RH  048%=      5-min Rain = 0
KWA1 121558Z 17000KT 03/M07 A3037 RMK A01 T00321069  RH  047%=      5-min Rain = 0
KWA1 121559Z 35001KT 03/M07 A3037 RMK A01 T00311068  RH  048%=      5-min Rain = 0
KWA1 121600Z 04001KT 03/M07 A3037 RMK A01 T00301073  RH  047%=      5-min Rain = 0
KWA1 121601Z 04000KT 03/M08 A3037 RMK A01 T00291077  RH  046%=      5-min Rain = 0
KWA1 121602Z 32000KT 03/M07 A3037 RMK A01 T00291072  RH  047%=      5-min Rain = 0
KWA1 121603Z 26001KT 03/M08 A3037 RMK A01 T00271075  RH  047%=      5-min Rain = 0
KWA1 121604Z 30000KT 03/M07 A3037 RMK A01 T00271073  RH  048%=      5-min Rain = 0
KWA1 121605Z 33001KT 03/M07 A3037 RMK A01 T00271073  RH  048%=      5-min Rain = 0
KWA1 121606Z 35001KT 03/M07 A3037 RMK A01 T00271073  RH  048%=      5-min Rain = 0
KWA1 121607Z 00001KT 03/M07 A3037 RMK A01 T00271072  RH  048%=      5-min Rain = 0
KWA1 121608Z 36000KT 03/M08 A3037 RMK A01 T00271076  RH  047%=      5-min Rain = 0
KWA1 121609Z 33001KT 03/M08 A3037 RMK A01 T00261075  RH  047%=      5-min Rain = 0
KWA1 121610Z 32002KT 03/M07 A3037 RMK A01 T00271074  RH  047%=      5-min Rain = 0
KWA1 121611Z 32002KT 03/M07 A3036 RMK A01 T00271072  RH  048%=      5-min Rain = 0
KWA1 121612Z 33002KT 03/M08 A3037 RMK A01 T00271075  RH  047%=      5-min Rain = 0
KWA1 121613Z 35001KT 03/M08 A3037 RMK A01 T00261076  RH  047%=      5-min Rain = 0
KWA1 121614Z 01002KT 03/M08 A3037 RMK A01 T00251077  RH  047%=      5-min Rain = 0
KWA1 121615Z 01001KT 03/M08 A3037 RMK A01 T00251075  RH  048%=      5-min Rain = 0
KWA1 121616Z 02000KT 03/M07 A3037 RMK A01 T00251074  RH  048%=      5-min Rain = 0
KWA1 121617Z 03000KT 03/M07 A3037 RMK A01 T00261074  RH  048%=      5-min Rain = 0
KWA1 121618Z 07003KT 03/M07 A3037 RMK A01 T00271074  RH  047%=      5-min Rain = 0
KWA1 121619Z 08003KT 03/M08 A3037 RMK A01 T00281076  RH  046%=      5-min Rain = 0
KWA1 121620Z 08002KT 03/M08 A3037 RMK A01 T00281078  RH  045%=      5-min Rain = 0
KWA1 121621Z 09001KT 03/M08 A3037 RMK A01 T00281082  RH  044%=      5-min Rain = 0
KWA1 121622Z 09002KT 03/M08 A3037 RMK A01 T00281080  RH  045%=      5-min Rain = 0
KWA1 121623Z 10001KT 03/M08 A3037 RMK A01 T00291083  RH  044%=      5-min Rain = 0
KWA1 121624Z 09001KT 03/M08 A3037 RMK A01 T00281082  RH  044%=      5-min Rain = 0
KWA1 121625Z 09000KT 03/M08 A3037 RMK A01 T00291083  RH  043%=      5-min Rain = 0
KWA1 121626Z 10002KT 03/M08 A3036 RMK A01 T00311080  RH  044%=      5-min Rain = 0
KWA1 121627Z 06003KT 03/M08 A3036 RMK A01 T00321076  RH  045%=      5-min Rain = 0
KWA1 121628Z 07003KT 03/M07 A3036 RMK A01 T00331073  RH  046%=      5-min Rain = 0
KWA1 121629Z 05002KT 03/M08 A3036 RMK A01 T00331077  RH  044%=      5-min Rain = 0
KWA1 121630Z 05002KT 03/M08 A3036 RMK A01 T00321077  RH  045%=      5-min Rain = 0
KWA1 121631Z 10002KT 03/M08 A3036 RMK A01 T00311075  RH  046%=      5-min Rain = 0
KWA1 121632Z 08001KT 03/M08 A3036 RMK A01 T00311078  RH  045%=      5-min Rain = 0
KWA1 121633Z 02001KT 03/M08 A3036 RMK A01 T00301079  RH  045%=      5-min Rain = 0
KWA1 121634Z 18001KT 03/M08 A3036 RMK A01 T00311077  RH  045%=      5-min Rain = 0
KWA1 121635Z 16001KT 03/M08 A3036 RMK A01 T00331076  RH  045%=      5-min Rain = 0
KWA1 121636Z 13001KT 04/M08 A3036 RMK A01 T00361077  RH  043%=      5-min Rain = 0
KWA1 121637Z 08000KT 04/M08 A3036 RMK A01 T00381078  RH  043%=      5-min Rain = 0
KWA1 121638Z 02002KT 04/M08 A3036 RMK A01 T00391075  RH  043%=      5-min Rain = 0
KWA1 121639Z 03003KT 04/M08 A3036 RMK A01 T00381076  RH  043%=      5-min Rain = 0
KWA1 121640Z 03002KT 04/M08 A3036 RMK A01 T00361078  RH  043%=      5-min Rain = 0
KWA1 121641Z 06003KT 04/M07 A3036 RMK A01 T00361072  RH  045%=      5-min Rain = 0
KWA1 121642Z 08002KT 04/M07 A3036 RMK A01 T00381068  RH  046%=      5-min Rain = 0
KWA1 121643Z 08003KT 04/M07 A3036 RMK A01 T00401069  RH  045%=      5-min Rain = 0
KWA1 121644Z 08002KT 04/M08 A3036 RMK A01 T00391075  RH  043%=      5-min Rain = 0
KWA1 121645Z 13001KT 04/M08 A3036 RMK A01 T00391075  RH  043%=      5-min Rain = 0
KWA1 121646Z 04001KT 04/M07 A3036 RMK A01 T00391072  RH  044%=      5-min Rain = 0
KWA1 121647Z 06001KT 04/M07 A3036 RMK A01 T00401072  RH  044%=      5-min Rain = 0
KWA1 121648Z 15002KT 04/M07 A3036 RMK A01 T00411072  RH  044%=      5-min Rain = 0
KWA1 121649Z 15003KT 04/M07 A3036 RMK A01 T00411074  RH  043%=      5-min Rain = 0
KWA1 121650Z 14002KT 04/M07 A3035 RMK A01 T00421073  RH  043%=      5-min Rain = 0
KWA1 121651Z 11004KT 04/M07 A3035 RMK A01 T00441071  RH  043%=      5-min Rain = 0
KWA1 121652Z 12002KT 05/M07 A3036 RMK A01 T00461071  RH  042%=      5-min Rain = 0
KWA1 121653Z 12002KT 04/M08 A3035 RMK A01 T00441077  RH  041%=      5-min Rain = 0
KWA1 121654Z 14002KT 04/M08 A3035 RMK A01 T00421081  RH  040%=      5-min Rain = 0
KWA1 121655Z 11001KT 04/M08 A3035 RMK A01 T00421080  RH  041%=      5-min Rain = 0
KWA1 121656Z 08003KT 04/M08 A3035 RMK A01 T00431077  RH  041%=      5-min Rain = 0
KWA1 121657Z 12002KT 04/M08 A3035 RMK A01 T00421080  RH  041%=      5-min Rain = 0
KWA1 121658Z 13003KT 04/M08 A3035 RMK A01 T00431077  RH  041%=      5-min Rain = 0
KWA1 121659Z 16004KT 04/M08 A3035 RMK A01 T00441083  RH  039%=      5-min Rain = 0
KWA1 121700Z 15005KT 04/M08 A3035 RMK A01 T00441080  RH  040%=      5-min Rain = 0
KWA1 121701Z 16003KT 05/M08 A3035 RMK A01 T00461080  RH  040%=      5-min Rain = 0
KWA1 121702Z 14004KT 05/M08 A3035 RMK A01 T00451080  RH  040%=      5-min Rain = 0
KWA1 121703Z 13001KT 05/M08 A3035 RMK A01 T00451079  RH  040%=      5-min Rain = 0
KWA1 121704Z 15001KT 05/M08 A3034 RMK A01 T00461078  RH  040%=      5-min Rain = 0
KWA1 121705Z 10003KT 05/M07 A3034 RMK A01 T00491072  RH  041%=      5-min Rain = 0
KWA1 121706Z 10004KT 05/M07 A3034 RMK A01 T00501074  RH  040%=      5-min Rain = 0
KWA1 121707Z 11004KT 05/M08 A3034 RMK A01 T00491077  RH  039%=      5-min Rain = 0
KWA1 121708Z 10004KT 05/M08 A3034 RMK A01 T00471082  RH  039%=      5-min Rain = 0
KWA1 121709Z 11005KT 05/M08 A3034 RMK A01 T00471077  RH  040%=      5-min Rain = 0
KWA1 121710Z 12003KT 05/M08 A3034 RMK A01 T00481081  RH  039%=      5-min Rain = 0
KWA1 121711Z 15002KT 05/M08 A3034 RMK A01 T00471084  RH  038%=      5-min Rain = 0
KWA1 121712Z 14003KT 05/M08 A3034 RMK A01 T00471079  RH  040%=      5-min Rain = 0
KWA1 121713Z 16003KT 05/M08 A3034 RMK A01 T00501078  RH  039%=      5-min Rain = 0
KWA1 121714Z 15002KT 05/M08 A3034 RMK A01 T00511079  RH  039%=      5-min Rain = 0
KWA1 121715Z 11003KT 05/M08 A3034 RMK A01 T00511077  RH  039%=      5-min Rain = 0
KWA1 121716Z 09003KT 05/M08 A3035 RMK A01 T00511080  RH  038%=      5-min Rain = 0
KWA1 121717Z 09002KT 05/M08 A3035 RMK A01 T00501078  RH  039%=      5-min Rain = 0
KWA1 121718Z 10001KT 05/M08 A3034 RMK A01 T00511078  RH  039%=      5-min Rain = 0
KWA1 121719Z 07003KT 05/M08 A3034 RMK A01 T00531079  RH  038%=      5-min Rain = 0
KWA1 121720Z 06003KT 05/M08 A3034 RMK A01 T00521082  RH  037%=      5-min Rain = 0
KWA1 121721Z 05002KT 05/M08 A3034 RMK A01 T00511080  RH  038%=      5-min Rain = 0
KWA1 121722Z 20002KT 05/M07 A3034 RMK A01 T00521074  RH  040%=      5-min Rain = 0
KWA1 121723Z 21003KT 05/M08 A3034 RMK A01 T00541077  RH  038%=      5-min Rain = 0
KWA1 121724Z 19002KT 05/M08 A3034 RMK A01 T00541079  RH  037%=      5-min Rain = 0
KWA1 121725Z 17002KT 05/M08 A3034 RMK A01 T00541080  RH  037%=      5-min Rain = 0
KWA1 121726Z 10003KT 06/M08 A3034 RMK A01 T00551079  RH  037%=      5-min Rain = 0
KWA1 121727Z 09003KT 06/M08 A3034 RMK A01 T00571078  RH  037%=      5-min Rain = 0
KWA1 121728Z 08003KT 06/M08 A3034 RMK A01 T00571082  RH  036%=      5-min Rain = 0
KWA1 121729Z 09003KT 06/M08 A3034 RMK A01 T00561082  RH  036%=      5-min Rain = 0
KWA1 121730Z 10001KT 06/M08 A3034 RMK A01 T00561082  RH  036%=      5-min Rain = 0
KWA1 121731Z 14002KT 06/M08 A3034 RMK A01 T00581077  RH  037%=      5-min Rain = 0
KWA1 121732Z 08002KT 06/M07 A3034 RMK A01 T00621074  RH  037%=      5-min Rain = 0
KWA1 121733Z 09004KT 06/M08 A3033 RMK A01 T00631077  RH  036%=      5-min Rain = 0
KWA1 121734Z 10003KT 06/M08 A3033 RMK A01 T00621077  RH  036%=      5-min Rain = 0
KWA1 121735Z 15003KT 06/M08 A3033 RMK A01 T00621078  RH  036%=      5-min Rain = 0
KWA1 121736Z 15004KT 06/M08 A3033 RMK A01 T00631076  RH  036%=      5-min Rain = 0
KWA1 121737Z 17004KT 06/M08 A3033 RMK A01 T00631080  RH  035%=      5-min Rain = 0
KWA1 121738Z 15003KT 06/M08 A3033 RMK A01 T00611078  RH  036%=      5-min Rain = 0
KWA1 121739Z 12005KT 06/M08 A3033 RMK A01 T00641075  RH  036%=      5-min Rain = 0
KWA1 121740Z 12003KT 06/M09 A3033 RMK A01 T00621085  RH  034%=      5-min Rain = 0
KWA1 121741Z 11005KT 06/M08 A3033 RMK A01 T00601084  RH  035%=      5-min Rain = 0
KWA1 121742Z 10004KT 06/M08 A3033 RMK A01 T00601082  RH  035%=      5-min Rain = 0
KWA1 121743Z 11006KT 06/M08 A3033 RMK A01 T00601077  RH  037%=      5-min Rain = 0
KWA1 121744Z 10005KT 06/M08 A3032 RMK A01 T00611077  RH  036%=      5-min Rain = 0
KWA1 121745Z 09006KT 06/M08 A3032 RMK A01 T00621079  RH  036%=      5-min Rain = 0
KWA1 121746Z 11006KT 06/M08 A3032 RMK A01 T00601081  RH  035%=      5-min Rain = 0
KWA1 121747Z 11006KT 06/M08 A3032 RMK A01 T00601081  RH  036%=      5-min Rain = 0
KWA1 121748Z 11004KT 06/M08 A3032 RMK A01 T00601084  RH  035%=      5-min Rain = 0
KWA1 121749Z 15004KT 06/M08 A3032 RMK A01 T00601084  RH  035%=      5-min Rain = 0
KWA1 121750Z 16002KT 06/M08 A3032 RMK A01 T00631078  RH  036%=      5-min Rain = 0
KWA1 121751Z 14003KT 07/M08 A3032 RMK A01 T00661079  RH  035%=      5-min Rain = 0
KWA1 121752Z 16004KT 07/M08 A3031 RMK A01 T00671079  RH  035%=      5-min Rain = 0
KWA1 121753Z 11005KT 07/M08 A3031 RMK A01 T00681077  RH  035%=      5-min Rain = 0
KWA1 121754Z 10007KT 07/M08 A3031 RMK A01 T00701077  RH  034%=      5-min Rain = 0
KWA1 121755Z 10006KT 07/M08 A3031 RMK A01 T00691081  RH  033%=      5-min Rain = 0
KWA1 121756Z 11006KT 07/M08 A3031 RMK A01 T00681080  RH  034%=      5-min Rain = 0
KWA1 121757Z 11005KT 07/M08 A3031 RMK A01 T00671080  RH  034%=      5-min Rain = 0
KWA1 121758Z 11004KT 07/M08 A3031 RMK A01 T00681080  RH  034%=      5-min Rain = 0
KWA1 121759Z 13003KT 07/M08 A3031 RMK A01 T00681081  RH  034%=      5-min Rain = 0
KWA1 121800Z 13002KT 07/M08 A303 RMK A01 T00681080  RH  034%=      5-min Rain = 0
KWA1 121801Z 13001KT 07/M08 A303 RMK A01 T00721075  RH  034%=      5-min Rain = 0
KWA1 121802Z 10007KT 08/M08 A303 RMK A01 T00751076  RH  033%=      5-min Rain = 0
KWA1 121803Z 11004KT 07/M08 A303 RMK A01 T00741082  RH  032%=      5-min Rain = 0
KWA1 121804Z 09007KT 07/M08 A303 RMK A01 T00721083  RH  032%=      5-min Rain = 0
KWA1 121805Z 10007KT 07/M08 A303 RMK A01 T00711083  RH  032%=      5-min Rain = 0
KWA1 121806Z 11006KT 07/M08 A303 RMK A01 T00711083  RH  033%=      5-min Rain = 0
KWA1 121807Z 13005KT 07/M08 A3029 RMK A01 T00741076  RH  033%=      5-min Rain = 0
KWA1 121808Z 15006KT 08/M08 A3029 RMK A01 T00771078  RH  032%=      5-min Rain = 0
KWA1 121809Z 14005KT 08/M08 A3029 RMK A01 T00771078  RH  032%=      5-min Rain = 0
KWA1 121810Z 12007KT 08/M08 A3029 RMK A01 T00781077  RH  032%=      5-min Rain = 0
KWA1 121811Z 10006KT 08/M08 A3029 RMK A01 T00761080  RH  032%=      5-min Rain = 0
KWA1 121812Z 11005KT 08/M08 A3029 RMK A01 T00751079  RH  033%=      5-min Rain = 0
KWA1 121813Z 11006KT 08/M08 A3029 RMK A01 T00761081  RH  032%=      5-min Rain = 0
KWA1 121814Z 10004KT 07/M08 A3029 RMK A01 T00741084  RH  032%=      5-min Rain = 0
KWA1 121815Z 13005KT 08/M08 A3029 RMK A01 T00751079  RH  033%=      5-min Rain = 0
KWA1 121816Z 10004KT 08/M07 A3029 RMK A01 T00781074  RH  033%=      5-min Rain = 0
KWA1 121817Z 11006KT 08/M07 A3029 RMK A01 T00811072  RH  033%=      5-min Rain = 0
KWA1 121818Z 12006KT 08/M08 A3029 RMK A01 T00811082  RH  031%=      5-min Rain = 0
KWA1 121819Z 12005KT 08/M09 A3028 RMK A01 T00791088  RH  030%=      5-min Rain = 0
KWA1 121820Z 11005KT 08/M09 A3028 RMK A01 T00781085  RH  031%=      5-min Rain = 0
KWA1 121821Z 11006KT 08/M08 A3028 RMK A01 T00821078  RH  031%=      5-min Rain = 0
KWA1 121822Z 12006KT 08/M09 A3028 RMK A01 T00821085  RH  030%=      5-min Rain = 0
KWA1 121823Z 10008KT 08/M09 A3028 RMK A01 T00811085  RH  030%=      5-min Rain = 0
KWA1 121824Z 10006KT 08/M09 A3028 RMK A01 T00791085  RH  030%=      5-min Rain = 0
KWA1 121825Z 12007KT 08/M08 A3028 RMK A01 T00771084  RH  031%=      5-min Rain = 0
KWA1 121826Z 14007KT 08/M09 A3028 RMK A01 T00781091  RH  029%=      5-min Rain = 0
KWA1 121827Z 13007KT 08/M09 A3028 RMK A01 T00791089  RH  029%=      5-min Rain = 0
KWA1 121828Z 12007KT 08/M09 A3027 RMK A01 T00821085  RH  030%=      5-min Rain = 0
KWA1 121829Z 10006KT 08/M09 A3027 RMK A01 T00821090  RH  028%=      5-min Rain = 0
KWA1 121830Z 11006KT 08/M09 A3027 RMK A01 T00791092  RH  029%=      5-min Rain = 0
KWA1 121831Z 11006KT 08/M09 A3027 RMK A01 T00801088  RH  029%=      5-min Rain = 0
KWA1 121832Z 11005G10KT 08/M09 A3027 RMK A01 T00791089  RH  029%=      5-min Rain = 0
KWA1 121833Z 13007KT 08/M09 A3027 RMK A01 T00791088  RH  030%=      5-min Rain = 0
KWA1 121834Z 13006KT 08/M09 A3027 RMK A01 T00831086  RH  029%=      5-min Rain = 0
KWA1 121835Z 14004KT 08/M09 A3027 RMK A01 T00821089  RH  029%=      5-min Rain = 0
KWA1 121836Z 12006KT 08/M09 A3027 RMK A01 T00841086  RH  029%=      5-min Rain = 0
KWA1 121837Z 14007KT 08/M08 A3026 RMK A01 T00841083  RH  030%=      5-min Rain = 0
KWA1 121838Z 12007KT 09/M08 A3026 RMK A01 T00881082  RH  029%=      5-min Rain = 0
KWA1 121839Z 10007KT 09/M09 A3026 RMK A01 T00861086  RH  029%=      5-min Rain = 0
KWA1 121840Z 11006KT 09/M09 A3026 RMK A01 T00851089  RH  028%=      5-min Rain = 0
KWA1 121841Z 11008KT 08/M09 A3026 RMK A01 T00841088  RH  029%=      5-min Rain = 0
KWA1 121842Z 12006KT 09/M09 A3026 RMK A01 T00851087  RH  029%=      5-min Rain = 0
KWA1 121843Z 12005KT 09/M09 A3026 RMK A01 T00871085  RH  029%=      5-min Rain = 0
KWA1 121844Z 12005KT 09/M09 A3026 RMK A01 T00861088  RH  028%=      5-min Rain = 0
KWA1 121845Z 12003KT 09/M09 A3026 RMK A01 T00861087  RH  028%=      5-min Rain = 0
KWA1 121846Z 10005KT 09/M08 A3026 RMK A01 T00871083  RH  029%=      5-min Rain = 0
KWA1 121847Z 09005KT 09/M08 A3026 RMK A01 T00891082  RH  029%=      5-min Rain = 0
KWA1 121848Z 09006KT 09/M09 A3026 RMK A01 T00901086  RH  028%=      5-min Rain = 0
KWA1 121849Z 12004KT 09/M09 A3026 RMK A01 T00891087  RH  028%=      5-min Rain = 0
KWA1 121850Z 12007KT 09/M08 A3026 RMK A01 T00911082  RH  029%=      5-min Rain = 0
KWA1 121851Z 12010KT 09/M09 A3026 RMK A01 T00931087  RH  027%=      5-min Rain = 0
KWA1 121852Z 12008KT 09/M09 A3026 RMK A01 T00921093  RH  026%=      5-min Rain = 0
KWA1 121853Z 13006KT 09/M10 A3026 RMK A01 T00911097  RH  025%=      5-min Rain = 0
KWA1 121854Z 11006KT 09/M10 A3026 RMK A01 T00901096  RH  026%=      5-min Rain = 0
KWA1 121855Z 11006KT 09/M10 A3025 RMK A01 T00901096  RH  026%=      5-min Rain = 0
KWA1 121856Z 10007KT 09/M09 A3025 RMK A01 T00901091  RH  027%=      5-min Rain = 0
KWA1 121857Z 14006KT 10/M08 A3025 RMK A01 T00951084  RH  027%=      5-min Rain = 0
KWA1 121858Z 12006KT 10/M09 A3025 RMK A01 T00971088  RH  026%=      5-min Rain = 0
KWA1 121859Z 09006KT 10/M09 A3025 RMK A01 T00961088  RH  026%=      5-min Rain = 0
KWA1 121900Z 09007KT 10/M09 A3025 RMK A01 T00961087  RH  027%=      5-min Rain = 0
KWA1 121901Z 09007KT 09/M09 A3025 RMK A01 T00931089  RH  027%=      5-min Rain = 0
KWA1 121902Z 10007KT 09/M09 A3025 RMK A01 T00941089  RH  027%=      5-min Rain = 0
KWA1 121903Z 10006KT 10/M09 A3025 RMK A01 T00951090  RH  026%=      5-min Rain = 0
KWA1 121904Z 13005KT 10/M09 A3025 RMK A01 T00951089  RH  026%=      5-min Rain = 0
KWA1 121905Z 11005KT 10/M09 A3025 RMK A01 T00961087  RH  027%=      5-min Rain = 0
KWA1 121906Z 09006KT 10/M08 A3025 RMK A01 T01001083  RH  027%=      5-min Rain = 0
KWA1 121907Z 11004KT 10/M09 A3025 RMK A01 T00981091  RH  026%=      5-min Rain = 0
KWA1 121908Z 11003KT 10/M09 A3025 RMK A01 T00951093  RH  026%=      5-min Rain = 0
KWA1 121909Z 09006KT 09/M09 A3024 RMK A01 T00941091  RH  026%=      5-min Rain = 0
KWA1 121910Z 10008KT 10/M09 A3024 RMK A01 T00951091  RH  026%=      5-min Rain = 0
KWA1 121911Z 12008KT 10/M09 A3024 RMK A01 T00971092  RH  025%=      5-min Rain = 0
KWA1 121912Z 11004KT 10/M09 A3024 RMK A01 T00981094  RH  025%=      5-min Rain = 0
KWA1 121913Z 08005KT 10/M09 A3024 RMK A01 T01001091  RH  025%=      5-min Rain = 0
KWA1 121914Z 07004KT 10/M09 A3024 RMK A01 T01001094  RH  024%=      5-min Rain = 0
KWA1 121915Z 07004KT 10/M10 A3024 RMK A01 T00981096  RH  025%=      5-min Rain = 0
KWA1 121916Z 10008KT 10/M09 A3024 RMK A01 T00981093  RH  025%=      5-min Rain = 0
KWA1 121917Z 10006KT 10/M10 A3024 RMK A01 T00991097  RH  024%=      5-min Rain = 0
KWA1 121918Z 10009KT 10/M10 A3024 RMK A01 T01001098  RH  024%=      5-min Rain = 0
KWA1 121919Z 09007KT 10/M10 A3024 RMK A01 T01011096  RH  024%=      5-min Rain = 0
KWA1 121920Z 11006KT 10/M10 A3023 RMK A01 T01021096  RH  024%=      5-min Rain = 0
KWA1 121921Z 11006KT 10/M10 A3023 RMK A01 T01031097  RH  023%=      5-min Rain = 0
KWA1 121922Z 12003KT 10/M10 A3023 RMK A01 T01001102  RH  023%=      5-min Rain = 0
KWA1 121923Z 10004KT 10/M10 A3023 RMK A01 T00991102  RH  023%=      5-min Rain = 0
KWA1 121924Z 10007KT 10/M10 A3023 RMK A01 T01011095  RH  024%=      5-min Rain = 0
KWA1 121925Z 12006KT 10/M10 A3023 RMK A01 T01041098  RH  023%=      5-min Rain = 0
KWA1 121926Z 10005KT 10/M10 A3023 RMK A01 T01031103  RH  022%=      5-min Rain = 0
KWA1 121927Z 11005KT 10/M10 A3023 RMK A01 T01001104  RH  023%=      5-min Rain = 0
KWA1 121928Z 14005KT 10/M10 A3023 RMK A01 T01021095  RH  024%=      5-min Rain = 0
KWA1 121929Z 11006KT 11/M09 A3023 RMK A01 T01061091  RH  024%=      5-min Rain = 0
KWA1 121930Z 09005KT 11/M10 A3023 RMK A01 T01081096  RH  023%=      5-min Rain = 0
KWA1 121931Z 10003KT 11/M10 A3023 RMK A01 T01051098  RH  023%=      5-min Rain = 0
KWA1 121932Z 11005KT 11/M09 A3023 RMK A01 T01081088  RH  024%=      5-min Rain = 0
KWA1 121933Z 11007KT 11/M09 A3023 RMK A01 T01121089  RH  024%=      5-min Rain = 0
KWA1 121934Z 12007KT 11/M10 A3023 RMK A01 T01111095  RH  023%=      5-min Rain = 0
KWA1 121935Z 11007KT 11/M10 A3022 RMK A01 T01081097  RH  023%=      5-min Rain = 0
KWA1 121936Z 14006KT 11/M10 A3022 RMK A01 T01081098  RH  023%=      5-min Rain = 0
KWA1 121937Z 15006KT 11/M10 A3022 RMK A01 T01081098  RH  023%=      5-min Rain = 0
KWA1 121938Z 12007KT 11/M09 A3022 RMK A01 T01101093  RH  023%=      5-min Rain = 0
KWA1 121939Z 11007KT 12/M09 A3022 RMK A01 T01151089  RH  023%=      5-min Rain = 0
KWA1 121940Z 09007KT 11/M10 A3022 RMK A01 T01131097  RH  022%=      5-min Rain = 0
KWA1 121941Z 09007KT 11/M10 A3022 RMK A01 T01101096  RH  023%=      5-min Rain = 0
KWA1 121942Z 09004KT 11/M10 A3022 RMK A01 T01071100  RH  022%=      5-min Rain = 0
KWA1 121943Z 08005KT 11/M10 A3022 RMK A01 T01061096  RH  023%=      5-min Rain = 0
KWA1 121944Z 12008KT 11/M09 A3021 RMK A01 T01091092  RH  023%=      5-min Rain = 0
KWA1 121945Z 10007KT 11/M09 A3021 RMK A01 T01111094  RH  023%=      5-min Rain = 0
KWA1 121946Z 13009KT 11/M09 A3021 RMK A01 T01121094  RH  023%=      5-min Rain = 0
KWA1 121947Z 15005KT 11/M10 A3021 RMK A01 T01121098  RH  022%=      5-min Rain = 0
KWA1 121948Z 12005G10KT 11/M09 A3021 RMK A01 T01131093  RH  023%=      5-min Rain = 0
KWA1 121949Z 10008KT 11/M10 A3021 RMK A01 T01141097  RH  022%=      5-min Rain = 0
KWA1 121950Z 10005KT 11/M10 A3021 RMK A01 T01101104  RH  021%=      5-min Rain = 0
KWA1 121951Z 10007KT 11/M10 A3021 RMK A01 T01091101  RH  022%=      5-min Rain = 0
KWA1 121952Z 10007KT 11/M10 A3021 RMK A01 T01101100  RH  022%=      5-min Rain = 0
KWA1 121953Z 10008KT 11/M10 A3021 RMK A01 T01091099  RH  022%=      5-min Rain = 0
KWA1 121954Z 11006KT 11/M10 A3021 RMK A01 T01091099  RH  022%=      5-min Rain = 0
KWA1 121955Z 14007KT 11/M10 A3021 RMK A01 T01091100  RH  022%=      5-min Rain = 0
KWA1 121956Z 13007KT 11/M10 A3021 RMK A01 T01131096  RH  022%=      5-min Rain = 0
KWA1 121957Z 09006KT 12/M10 A3021 RMK A01 T01151100  RH  021%=      5-min Rain = 0
KWA1 121958Z 12003KT 11/M11 A3021 RMK A01 T01121107  RH  020%=      5-min Rain = 0
KWA1 121959Z 12004KT 11/M11 A3021 RMK A01 T01101106  RH  021%=      5-min Rain = 0
KWA1 122000Z 12006KT 11/M10 A302 RMK A01 T01131096  RH  022%=      5-min Rain = 0
KWA1 122001Z 12007KT 12/M10 A302 RMK A01 T01171097  RH  021%=      5-min Rain = 0
KWA1 122002Z 10005KT 12/M11 A302 RMK A01 T01161105  RH  020%=      5-min Rain = 0
KWA1 122003Z 13006KT 12/M10 A302 RMK A01 T01151103  RH  021%=      5-min Rain = 0
KWA1 122004Z 13007KT 12/M10 A302 RMK A01 T01181095  RH  022%=      5-min Rain = 0
KWA1 122005Z 15006KT 12/M09 A302 RMK A01 T01221094  RH  021%=      5-min Rain = 0
KWA1 122006Z 17005KT 12/M10 A302 RMK A01 T01221100  RH  020%=      5-min Rain = 0
KWA1 122007Z 12006KT 12/M10 A302 RMK A01 T01201102  RH  020%=      5-min Rain = 0
KWA1 122008Z 10006KT 12/M10 A302 RMK A01 T01191104  RH  020%=      5-min Rain = 0
KWA1 122009Z 13005KT 12/M10 A302 RMK A01 T01161102  RH  021%=      5-min Rain = 0
KWA1 122010Z 14005KT 12/M10 A302 RMK A01 T01191096  RH  021%=      5-min Rain = 0
KWA1 122011Z 14007KT 12/M10 A302 RMK A01 T01211100  RH  020%=      5-min Rain = 0
KWA1 122012Z 12006KT 12/M10 A302 RMK A01 T01201102  RH  020%=      5-min Rain = 0
KWA1 122013Z 09005KT 12/M10 A302 RMK A01 T01191102  RH  020%=      5-min Rain = 0
KWA1 122014Z 10007G12KT 12/M10 A302 RMK A01 T01191101  RH  020%=      5-min Rain = 0
KWA1 122015Z 09008KT 12/M10 A302 RMK A01 T01211098  RH  021%=      5-min Rain = 0
KWA1 122016Z 09006KT 12/M11 A302 RMK A01 T01191106  RH  020%=      5-min Rain = 0
KWA1 122017Z 11007KT 12/M10 A302 RMK A01 T01161104  RH  020%=      5-min Rain = 0
KWA1 122018Z 12007KT 12/M10 A302 RMK A01 T01161104  RH  020%=      5-min Rain = 0
KWA1 122019Z 15009KT 12/M10 A302 RMK A01 T01171101  RH  021%=      5-min Rain = 0
KWA1 122020Z 16004KT 12/M10 A302 RMK A01 T01191102  RH  020%=      5-min Rain = 0
KWA1 122021Z 14005KT 12/M10 A302 RMK A01 T01201096  RH  021%=      5-min Rain = 0
KWA1 122022Z 13008KT 12/M10 A302 RMK A01 T01231099  RH  020%=      5-min Rain = 0
KWA1 122023Z 13005KT 12/M10 A302 RMK A01 T01201104  RH  020%=      5-min Rain = 0
KWA1 122024Z 15005KT 12/M10 A3019 RMK A01 T01191104  RH  020%=      5-min Rain = 0
KWA1 122025Z 14005KT 12/M10 A3019 RMK A01 T01201101  RH  020%=      5-min Rain = 0
KWA1 122026Z 14005KT 12/M10 A3019 RMK A01 T01211101  RH  020%=      5-min Rain = 0
KWA1 122027Z 11006KT 12/M10 A3019 RMK A01 T01221100  RH  020%=      5-min Rain = 0
KWA1 122028Z 13004KT 12/M10 A3019 RMK A01 T01211102  RH  020%=      5-min Rain = 0
KWA1 122029Z 09006KT 12/M10 A3019 RMK A01 T01211100  RH  020%=      5-min Rain = 0
KWA1 122030Z 09005KT 12/M10 A3019 RMK A01 T01211100  RH  020%=      5-min Rain = 0
KWA1 122031Z 10004KT 12/M10 A3019 RMK A01 T01211102  RH  020%=      5-min Rain = 0
KWA1 122032Z 09008KT 12/M10 A3019 RMK A01 T01211098  RH  021%=      5-min Rain = 0
KWA1 122033Z 10008KT 12/M10 A3019 RMK A01 T01221097  RH  021%=      5-min Rain = 0
KWA1 122034Z 11005KT 13/M09 A3019 RMK A01 T01261094  RH  021%=      5-min Rain = 0
KWA1 122035Z 09004KT 13/M10 A3019 RMK A01 T01261096  RH  020%=      5-min Rain = 0
KWA1 122036Z 09006KT 13/M10 A3019 RMK A01 T01251097  RH  020%=      5-min Rain = 0
KWA1 122037Z 08007KT 13/M10 A3018 RMK A01 T01251095  RH  021%=      5-min Rain = 0
KWA1 122038Z 08007KT 13/M09 A3018 RMK A01 T01281092  RH  021%=      5-min Rain = 0
KWA1 122039Z 09008KT 13/M10 A3018 RMK A01 T01291097  RH  020%=      5-min Rain = 0
KWA1 122040Z 09006KT 13/M10 A3018 RMK A01 T01251101  RH  020%=      5-min Rain = 0
KWA1 122041Z 10007KT 13/M10 A3018 RMK A01 T01251098  RH  020%=      5-min Rain = 0
KWA1 122042Z 11007KT 13/M10 A3018 RMK A01 T01251099  RH  020%=      5-min Rain = 0
KWA1 122043Z 11008KT 12/M10 A3018 RMK A01 T01241100  RH  020%=      5-min Rain = 0
KWA1 122044Z 12005KT 12/M10 A3018 RMK A01 T01241100  RH  020%=      5-min Rain = 0
KWA1 122045Z 08009KT 13/M10 A3018 RMK A01 T01251098  RH  020%=      5-min Rain = 0
KWA1 122046Z 08008KT 13/M10 A3018 RMK A01 T01261098  RH  020%=      5-min Rain = 0
KWA1 122047Z 08007KT 13/M10 A3018 RMK A01 T01261100  RH  020%=      5-min Rain = 0
KWA1 122048Z 09008KT 13/M10 A3018 RMK A01 T01261097  RH  020%=      5-min Rain = 0
KWA1 122049Z 09007KT 13/M10 A3018 RMK A01 T01261101  RH  020%=      5-min Rain = 0
KWA1 122050Z 10009KT 13/M10 A3018 RMK A01 T01251098  RH  020%=      5-min Rain = 0
KWA1 122051Z 11008KT 13/M10 A3018 RMK A01 T01271096  RH  020%=      5-min Rain = 0
KWA1 122052Z 12005KT 13/M10 A3018 RMK A01 T01271098  RH  020%=      5-min Rain = 0
KWA1 122053Z 11005KT 13/M10 A3018 RMK A01 T01261099  RH  020%=      5-min Rain = 0
KWA1 122054Z 10006KT 13/M10 A3018 RMK A01 T01261097  RH  020%=      5-min Rain = 0
KWA1 122055Z 10005KT 13/M10 A3018 RMK A01 T01271096  RH  020%=      5-min Rain = 0
KWA1 122056Z 10006KT 13/M10 A3018 RMK A01 T01281098  RH  020%=      5-min Rain = 0
KWA1 122057Z 11006KT 13/M10 A3018 RMK A01 T01261098  RH  020%=      5-min Rain = 0
KWA1 122058Z 12006KT 13/M09 A3018 RMK A01 T01281093  RH  020%=      5-min Rain = 0
KWA1 122059Z 11008KT 13/M09 A3018 RMK A01 T01311093  RH  020%=      5-min Rain = 0
KWA1 122100Z 10005KT 13/M10 A3018 RMK A01 T01281100  RH  019%=      5-min Rain = 0
KWA1 122101Z 07003KT 13/M10 A3018 RMK A01 T01271100  RH  020%=      5-min Rain = 0
KWA1 122102Z 11005KT 13/M10 A3018 RMK A01 T01271098  RH  020%=      5-min Rain = 0
KWA1 122103Z 11007KT 13/M10 A3018 RMK A01 T01271098  RH  020%=      5-min Rain = 0
KWA1 122104Z 11005KT 13/M10 A3018 RMK A01 T01271097  RH  020%=      5-min Rain = 0
KWA1 122105Z 10007KT 13/M10 A3018 RMK A01 T01281096  RH  020%=      5-min Rain = 0
KWA1 122106Z 11005KT 13/M10 A3018 RMK A01 T01301097  RH  020%=      5-min Rain = 0
KWA1 122107Z 10006KT 13/M10 A3017 RMK A01 T01281099  RH  020%=      5-min Rain = 0
KWA1 122108Z 11007KT 13/M10 A3017 RMK A01 T01291096  RH  020%=      5-min Rain = 0
KWA1 122109Z 10006KT 13/M10 A3017 RMK A01 T01291096  RH  020%=      5-min Rain = 0
KWA1 122110Z 09010KT 13/M10 A3017 RMK A01 T01301096  RH  020%=      5-min Rain = 0
KWA1 122111Z 10009KT 13/M09 A3017 RMK A01 T01311094  RH  020%=      5-min Rain = 0
KWA1 122112Z 10009KT 13/M09 A3017 RMK A01 T01321094  RH  020%=      5-min Rain = 0
KWA1 122113Z 11009KT 13/M09 A3017 RMK A01 T01341093  RH  020%=      5-min Rain = 0
KWA1 122114Z 10008KT 13/M10 A3017 RMK A01 T01321098  RH  019%=      5-min Rain = 0
KWA1 122115Z 11009KT 13/M10 A3017 RMK A01 T01311096  RH  020%=      5-min Rain = 0
KWA1 122116Z 11008KT 13/M10 A3017 RMK A01 T01311097  RH  020%=      5-min Rain = 0
KWA1 122117Z 10009KT 13/M09 A3017 RMK A01 T01321091  RH  020%=      5-min Rain = 0
KWA1 122118Z 11010KT 14/M09 A3017 RMK A01 T01351093  RH  020%=      5-min Rain = 0
KWA1 122119Z 13007KT 14/M09 A3017 RMK A01 T01351094  RH  019%=      5-min Rain = 0
KWA1 122120Z 12006KT 13/M10 A3017 RMK A01 T01341096  RH  019%=      5-min Rain = 0
KWA1 122121Z 08006KT 14/M09 A3017 RMK A01 T01351093  RH  020%=      5-min Rain = 0
KWA1 122122Z 08005KT 14/M10 A3017 RMK A01 T01351095  RH  019%=      5-min Rain = 0
KWA1 122123Z 11007KT 13/M10 A3017 RMK A01 T01341096  RH  019%=      5-min Rain = 0
KWA1 122124Z 12009KT 13/M09 A3017 RMK A01 T01331094  RH  020%=      5-min Rain = 0
KWA1 122125Z 12007KT 14/M09 A3017 RMK A01 T01351092  RH  020%=      5-min Rain = 0
KWA1 122126Z 10008KT 14/M09 A3017 RMK A01 T01361093  RH  020%=      5-min Rain = 0
KWA1 122127Z 11010KT 14/M09 A3017 RMK A01 T01361093  RH  020%=      5-min Rain = 0
KWA1 122128Z 12008KT 14/M10 A3017 RMK A01 T01351095  RH  019%=      5-min Rain = 0
KWA1 122129Z 10009KT 14/M09 A3017 RMK A01 T01361091  RH  020%=      5-min Rain = 0
KWA1 122130Z 09009KT 14/M09 A3017 RMK A01 T01381090  RH  020%=      5-min Rain = 0
KWA1 122131Z 10009KT 14/M09 A3017 RMK A01 T01381093  RH  019%=      5-min Rain = 0
KWA1 122132Z 12004KT 14/M09 A3017 RMK A01 T01361094  RH  019%=      5-min Rain = 0
KWA1 122133Z 16003KT 14/M09 A3017 RMK A01 T01361094  RH  019%=      5-min Rain = 0
KWA1 122134Z 19003KT 14/M09 A3017 RMK A01 T01361093  RH  019%=      5-min Rain = 0
KWA1 122135Z 19003KT 14/M09 A3017 RMK A01 T01381092  RH  019%=      5-min Rain = 0
KWA1 122136Z 22001KT 14/M09 A3017 RMK A01 T01391094  RH  019%=      5-min Rain = 0
KWA1 122137Z 14002KT 14/M09 A3017 RMK A01 T01401094  RH  019%=      5-min Rain = 0
KWA1 122138Z 10002KT 14/M09 A3017 RMK A01 T01411094  RH  019%=      5-min Rain = 0
KWA1 122139Z 08003KT 14/M10 A3017 RMK A01 T01391097  RH  019%=      5-min Rain = 0
KWA1 122140Z 07003KT 14/M09 A3017 RMK A01 T01381094  RH  019%=      5-min Rain = 0
KWA1 122141Z 08005KT 14/M09 A3017 RMK A01 T01391090  RH  019%=      5-min Rain = 0
KWA1 122142Z 07007KT 14/M09 A3017 RMK A01 T01401090  RH  019%=      5-min Rain = 0
KWA1 122143Z 07008KT 14/M09 A3017 RMK A01 T01411090  RH  019%=      5-min Rain = 0
KWA1 122144Z 08007KT 14/M10 A3017 RMK A01 T01391095  RH  019%=      5-min Rain = 0
KWA1 122145Z 09005KT 14/M10 A3017 RMK A01 T01381095  RH  019%=      5-min Rain = 0
KWA1 122146Z 08005KT 14/M10 A3017 RMK A01 T01361096  RH  019%=      5-min Rain = 0
KWA1 122147Z 07004KT 14/M10 A3017 RMK A01 T01361095  RH  019%=      5-min Rain = 0
KWA1 122148Z 05002KT 14/M10 A3017 RMK A01 T01351098  RH  019%=      5-min Rain = 0
KWA1 122149Z 02001KT 14/M10 A3017 RMK A01 T01351096  RH  019%=      5-min Rain = 0
KWA1 122150Z 06004KT 14/M09 A3017 RMK A01 T01361094  RH  019%=      5-min Rain = 0
KWA1 122151Z 06003KT 14/M09 A3017 RMK A01 T01371094  RH  019%=      5-min Rain = 0
KWA1 122152Z 08004KT 14/M09 A3017 RMK A01 T01371093  RH  019%=      5-min Rain = 0
KWA1 122153Z 11006KT 14/M09 A3017 RMK A01 T01371093  RH  019%=      5-min Rain = 0
KWA1 122154Z 17008KT 14/M09 A3017 RMK A01 T01381090  RH  020%=      5-min Rain = 0
KWA1 122155Z 21006KT 14/M09 A3017 RMK A01 T01421088  RH  020%=      5-min Rain = 0
KWA1 122156Z 21003KT 14/M09 A3017 RMK A01 T01421094  RH  019%=      5-min Rain = 0
KWA1 122157Z 24002KT 14/M10 A3017 RMK A01 T01411095  RH  019%=      5-min Rain = 0
KWA1 122158Z 23003KT 14/M09 A3017 RMK A01 T01421090  RH  019%=      5-min Rain = 0
KWA1 122159Z 25003KT 14/M09 A3017 RMK A01 T01431092  RH  019%=      5-min Rain = 0
KWA1 122200Z 23004KT 14/M09 A3017 RMK A01 T01441092  RH  019%=      5-min Rain = 0
KWA1 122201Z 21002KT 14/M09 A3017 RMK A01 T01441093  RH  019%=      5-min Rain = 0
KWA1 122202Z 18002KT 14/M10 A3017 RMK A01 T01431095  RH  018%=      5-min Rain = 0
KWA1 122203Z 17001KT 14/M10 A3017 RMK A01 T01421095  RH  018%=      5-min Rain = 0
KWA1 122204Z 19000KT 14/M09 A3017 RMK A01 T01421094  RH  019%=      5-min Rain = 0
KWA1 122205Z 16002KT 14/M09 A3017 RMK A01 T01431092  RH  019%=      5-min Rain = 0
KWA1 122206Z 19006KT 15/M09 A3017 RMK A01 T01451088  RH  019%=      5-min Rain = 0
KWA1 122207Z 18007KT 15/M09 A3017 RMK A01 T01461087  RH  019%=      5-min Rain = 0
KWA1 122208Z 18006KT 15/M09 A3017 RMK A01 T01471088  RH  019%=      5-min Rain = 0
KWA1 122209Z 18007KT 15/M09 A3017 RMK A01 T01461089  RH  019%=      5-min Rain = 0
KWA1 122210Z 19007KT 15/M09 A3017 RMK A01 T01451090  RH  019%=      5-min Rain = 0
KWA1 122211Z 19007KT 14/M09 A3017 RMK A01 T01441089  RH  019%=      5-min Rain = 0
KWA1 122212Z 19009KT 14/M09 A3017 RMK A01 T01441088  RH  019%=      5-min Rain = 0
KWA1 122213Z 19008KT 14/M09 A3017 RMK A01 T01441088  RH  019%=      5-min Rain = 0
KWA1 122214Z 19007KT 14/M09 A3017 RMK A01 T01441088  RH  019%=      5-min Rain = 0
KWA1 122215Z 22005KT 14/M09 A3017 RMK A01 T01441090  RH  019%=      5-min Rain = 0
KWA1 122216Z 21005KT 14/M09 A3017 RMK A01 T01431091  RH  019%=      5-min Rain = 0
KWA1 122217Z 22005KT 14/M09 A3017 RMK A01 T01431089  RH  019%=      5-min Rain = 0
KWA1 122218Z 21003KT 14/M09 A3017 RMK A01 T01431091  RH  019%=      5-min Rain = 0
KWA1 122219Z 18003KT 14/M09 A3017 RMK A01 T01431091  RH  019%=      5-min Rain = 0
KWA1 122220Z 18004KT 14/M09 A3017 RMK A01 T01441090  RH  019%=      5-min Rain = 0
KWA1 122221Z 18002KT 14/M09 A3017 RMK A01 T01421094  RH  018%=      5-min Rain = 0
KWA1 122222Z 17001KT 14/M09 A3017 RMK A01 T01421094  RH  019%=      5-min Rain = 0
KWA1 122223Z 07000KT 14/M09 A3017 RMK A01 T01421094  RH  019%=      5-min Rain = 0
KWA1 122224Z 05000KT 14/M09 A3018 RMK A01 T01421094  RH  018%=      5-min Rain = 0
KWA1 122225Z 04000KT 14/M09 A3018 RMK A01 T01441091  RH  019%=      5-min Rain = 0
KWA1 122226Z 00000KT 15/M09 A3018 RMK A01 T01451092  RH  019%=      5-min Rain = 0
KWA1 122227Z 17002KT 15/M09 A3018 RMK A01 T01461091  RH  019%=      5-min Rain = 0
KWA1 122228Z 16001KT 15/M09 A3018 RMK A01 T01461090  RH  019%=      5-min Rain = 0
KWA1 122229Z 12001KT 15/M09 A3018 RMK A01 T01461092  RH  018%=      5-min Rain = 0
KWA1 122230Z 10000KT 15/M09 A3018 RMK A01 T01461091  RH  019%=      5-min Rain = 0
KWA1 122231Z 08001KT 15/M09 A3018 RMK A01 T01461088  RH  019%=      5-min Rain = 0
KWA1 122232Z 10002KT 15/M09 A3018 RMK A01 T01461088  RH  019%=      5-min Rain = 0
KWA1 122233Z 12002KT 15/M09 A3018 RMK A01 T01461090  RH  019%=      5-min Rain = 0
KWA1 122234Z 14002KT 14/M09 A3018 RMK A01 T01441091  RH  019%=      5-min Rain = 0
KWA1 122235Z 15002KT 14/M09 A3018 RMK A01 T01441092  RH  019%=      5-min Rain = 0
KWA1 122236Z 20002KT 15/M09 A3018 RMK A01 T01451089  RH  019%=      5-min Rain = 0
KWA1 122237Z 22006KT 15/M09 A3018 RMK A01 T01471085  RH  019%=      5-min Rain = 0
KWA1 122238Z 20004KT 15/M09 A3018 RMK A01 T01461090  RH  019%=      5-min Rain = 0
KWA1 122239Z 21003KT 14/M09 A3018 RMK A01 T01441089  RH  019%=      5-min Rain = 0
KWA1 122240Z 22002KT 14/M09 A3018 RMK A01 T01441091  RH  019%=      5-min Rain = 0
KWA1 122241Z 24002KT 14/M09 A3018 RMK A01 T01431091  RH  019%=      5-min Rain = 0
KWA1 122242Z 25002KT 14/M09 A3018 RMK A01 T01431091  RH  019%=      5-min Rain = 0
KWA1 122243Z 27002KT 14/M09 A3018 RMK A01 T01441091  RH  019%=      5-min Rain = 0
KWA1 122244Z 29002KT 15/M09 A3018 RMK A01 T01451089  RH  019%=      5-min Rain = 0
KWA1 122245Z 27002KT 15/M09 A3018 RMK A01 T01451091  RH  019%=      5-min Rain = 0
KWA1 122246Z 28002KT 15/M09 A3018 RMK A01 T01451090  RH  019%=      5-min Rain = 0
KWA1 122247Z 29001KT 15/M09 A3018 RMK A01 T01451091  RH  019%=      5-min Rain = 0
KWA1 122248Z 27001KT 15/M09 A3018 RMK A01 T01451092  RH  019%=      5-min Rain = 0
KWA1 122249Z 24001KT 15/M09 A3018 RMK A01 T01451092  RH  019%=      5-min Rain = 0
KWA1 122250Z 22001KT 15/M09 A3018 RMK A01 T01451092  RH  019%=      5-min Rain = 0
KWA1 122251Z 25001KT 15/M09 A3018 RMK A01 T01461089  RH  019%=      5-min Rain = 0
KWA1 122252Z 25001KT 15/M09 A3018 RMK A01 T01471090  RH  019%=      5-min Rain = 0
KWA1 122253Z 30000KT 15/M09 A3018 RMK A01 T01491088  RH  019%=      5-min Rain = 0
KWA1 122254Z 18000KT 15/M09 A3018 RMK A01 T01501087  RH  019%=      5-min Rain = 0
KWA1 122255Z 17001KT 15/M09 A3018 RMK A01 T01511088  RH  018%=      5-min Rain = 0
KWA1 122256Z 15003KT 15/M09 A3018 RMK A01 T01501089  RH  018%=      5-min Rain = 0
KWA1 122257Z 16003KT 15/M09 A3018 RMK A01 T01481090  RH  019%=      5-min Rain = 0
KWA1 122258Z 15002KT 15/M09 A3018 RMK A01 T01461089  RH  019%=      5-min Rain = 0
KWA1 122259Z 15002KT 15/M09 A3018 RMK A01 T01451091  RH  019%=      5-min Rain = 0
KWA1 122300Z 14001KT 14/M09 A3018 RMK A01 T01441091  RH  019%=      5-min Rain = 0
KWA1 122301Z 12001KT 14/M09 A3018 RMK A01 T01441091  RH  019%=      5-min Rain = 0
KWA1 122302Z 10000KT 14/M09 A3018 RMK A01 T01441092  RH  019%=      5-min Rain = 0
KWA1 122303Z 06000KT 14/M09 A3018 RMK A01 T01441091  RH  019%=      5-min Rain = 0
KWA1 122304Z 12002KT 14/M09 A3018 RMK A01 T01441090  RH  019%=      5-min Rain = 0
KWA1 122305Z 10003KT 14/M09 A3018 RMK A01 T01441089  RH  019%=      5-min Rain = 0
KWA1 122306Z 10002KT 14/M09 A3018 RMK A01 T01421090  RH  019%=      5-min Rain = 0
KWA1 122307Z 10003KT 14/M09 A3018 RMK A01 T01411089  RH  019%=      5-min Rain = 0
KWA1 122308Z 12003KT 14/M09 A3018 RMK A01 T01401090  RH  019%=      5-min Rain = 0
KWA1 122309Z 12002KT 14/M09 A3018 RMK A01 T01401089  RH  020%=      5-min Rain = 0
KWA1 122310Z 11002KT 14/M09 A3018 RMK A01 T01401088  RH  020%=      5-min Rain = 0
KWA1 122311Z 10005KT 14/M09 A3018 RMK A01 T01401088  RH  020%=      5-min Rain = 0
KWA1 122312Z 11005KT 14/M09 A3018 RMK A01 T01391088  RH  020%=      5-min Rain = 0
KWA1 122313Z 10004KT 14/M09 A3018 RMK A01 T01391087  RH  020%=      5-min Rain = 0
KWA1 122314Z 10005KT 14/M09 A3018 RMK A01 T01381088  RH  020%=      5-min Rain = 0
KWA1 122315Z 11005KT 14/M09 A3018 RMK A01 T01381088  RH  020%=      5-min Rain = 0
KWA1 122316Z 10005KT 14/M09 A3018 RMK A01 T01371088  RH  020%=      5-min Rain = 0
KWA1 122317Z 08005KT 14/M09 A3018 RMK A01 T01371085  RH  021%=      5-min Rain = 0
KWA1 122318Z 06007KT 14/M08 A3018 RMK A01 T01361083  RH  021%=      5-min Rain = 0
KWA1 122319Z 06008KT 13/M09 A3018 RMK A01 T01341087  RH  021%=      5-min Rain = 0
KWA1 122320Z 06007KT 13/M09 A3018 RMK A01 T01281092  RH  021%=      5-min Rain = 0
KWA1 122321Z 07010KT 12/M09 A3018 RMK A01 T01241093  RH  021%=      5-min Rain = 0
KWA1 122322Z 06012KT 12/M09 A3018 RMK A01 T01221094  RH  021%=      5-min Rain = 0
KWA1 122323Z 06011KT 12/M10 A3018 RMK A01 T01211095  RH  021%=      5-min Rain = 0
KWA1 122324Z 05009KT 12/M10 A3018 RMK A01 T01201095  RH  021%=      5-min Rain = 0
KWA1 122325Z 05011KT 12/M09 A3018 RMK A01 T01191094  RH  022%=      5-min Rain = 0
KWA1 122326Z 05011KT 12/M09 A3018 RMK A01 T01181093  RH  022%=      5-min Rain = 0
KWA1 122327Z 05011KT 12/M09 A3018 RMK A01 T01171091  RH  022%=      5-min Rain = 0
KWA1 122328Z 05011KT 12/M09 A3018 RMK A01 T01161093  RH  022%=      5-min Rain = 0
KWA1 122329Z 05011KT 12/M09 A3018 RMK A01 T01151093  RH  022%=      5-min Rain = 0
KWA1 122330Z 06012KT 12/M09 A3018 RMK A01 T01151091  RH  023%=      5-min Rain = 0
KWA1 122331Z 06010KT 11/M09 A3019 RMK A01 T01141093  RH  023%=      5-min Rain = 0
KWA1 122332Z 06011KT 11/M09 A3019 RMK A01 T01131092  RH  023%=      5-min Rain = 0
KWA1 122333Z 06010KT 11/M09 A3019 RMK A01 T01121094  RH  023%=      5-min Rain = 0
KWA1 122334Z 06011KT 11/M09 A3019 RMK A01 T01111094  RH  023%=      5-min Rain = 0
KWA1 122335Z 06011KT 11/M10 A3019 RMK A01 T01101095  RH  023%=      5-min Rain = 0
KWA1 122336Z 06012KT 11/M10 A3019 RMK A01 T01081096  RH  023%=      5-min Rain = 0
KWA1 122337Z 06012KT 11/M10 A3019 RMK A01 T01071097  RH  023%=      5-min Rain = 0
KWA1 122338Z 06012KT 11/M10 A3019 RMK A01 T01061098  RH  023%=      5-min Rain = 0
KWA1 122339Z 06011KT 11/M10 A3019 RMK A01 T01061099  RH  023%=      5-min Rain = 0
KWA1 122340Z 06011KT 11/M10 A3019 RMK A01 T01051101  RH  022%=      5-min Rain = 0
KWA1 122341Z 06011KT 11/M10 A3019 RMK A01 T01051102  RH  022%=      5-min Rain = 0
KWA1 122342Z 06011KT 10/M10 A3019 RMK A01 T01041101  RH  022%=      5-min Rain = 0
KWA1 122343Z 06011KT 10/M10 A3019 RMK A01 T01031101  RH  023%=      5-min Rain = 0
KWA1 122344Z 06010KT 10/M10 A3019 RMK A01 T01011101  RH  023%=      5-min Rain = 0
KWA1 122345Z 06011KT 10/M10 A3019 RMK A01 T01011101  RH  023%=      5-min Rain = 0
KWA1 122346Z 06010KT 10/M10 A3019 RMK A01 T00991101  RH  023%=      5-min Rain = 0
KWA1 122347Z 06010KT 10/M10 A3019 RMK A01 T00981101  RH  024%=      5-min Rain = 0
KWA1 122348Z 06010KT 10/M10 A3019 RMK A01 T00981101  RH  024%=      5-min Rain = 0
KWA1 122349Z 06010KT 10/M10 A3019 RMK A01 T00971100  RH  024%=      5-min Rain = 0
KWA1 122350Z 06010KT 10/M10 A3019 RMK A01 T00971100  RH  024%=      5-min Rain = 0
KWA1 122351Z 06010KT 10/M10 A3019 RMK A01 T00961099  RH  024%=      5-min Rain = 0
KWA1 122352Z 07009KT 10/M10 A3019 RMK A01 T00961100  RH  024%=      5-min Rain = 0
KWA1 122353Z 07010KT 10/M10 A3019 RMK A01 T00951099  RH  024%=      5-min Rain = 0
KWA1 122354Z 07010KT 09/M10 A3019 RMK A01 T00941098  RH  025%=      5-min Rain = 0
KWA1 122355Z 07010KT 09/M10 A3019 RMK A01 T00931098  RH  025%=      5-min Rain = 0
KWA1 122356Z 06009KT 09/M10 A3019 RMK A01 T00911098  RH  025%=      5-min Rain = 0
KWA1 122357Z 06009KT 09/M10 A3019 RMK A01 T00901097  RH  026%=      5-min Rain = 0
KWA1 122358Z 06009KT 09/M10 A3019 RMK A01 T00891096  RH  026%=      5-min Rain = 0
KWA1 122359Z 06009KT 09/M10 A3019 RMK A01 T00881096  RH  026%=      5-min Rain = 0
KWA1 130000Z 07009KT 09/M10 A3019 RMK A01 T00871096  RH  026%=      5-min Rain = 0
KWA1 130001Z 07009KT 09/M10 A3019 RMK A01 T00861096  RH  027%=      5-min Rain = 0
KWA1 130002Z 06009KT 09/M10 A3019 RMK A01 T00851096  RH  027%=      5-min Rain = 0
KWA1 130003Z 07009KT 09/M10 A3019 RMK A01 T00851096  RH  027%=      5-min Rain = 0
KWA1 130004Z 07010KT 08/M10 A3019 RMK A01 T00841096  RH  027%=      5-min Rain = 0
KWA1 130005Z 07009KT 08/M10 A3019 RMK A01 T00841096  RH  027%=      5-min Rain = 0
KWA1 130006Z 07010KT 08/M10 A3019 RMK A01 T00841096  RH  027%=      5-min Rain = 0
KWA1 130007Z 07010KT 08/M10 A3019 RMK A01 T00841097  RH  027%=      5-min Rain = 0
KWA1 130008Z 07009KT 08/M10 A3019 RMK A01 T00841097  RH  027%=      5-min Rain = 0
KWA1 130009Z 07010KT 08/M10 A3019 RMK A01 T00831097  RH  027%=      5-min Rain = 0
KWA1 130010Z 07009KT 08/M10 A3019 RMK A01 T00831098  RH  027%=      5-min Rain = 0
KWA1 130011Z 07011KT 08/M10 A3019 RMK A01 T00831098  RH  027%=      5-min Rain = 0
KWA1 130012Z 07010KT 08/M10 A3019 RMK A01 T00821099  RH  027%=      5-min Rain = 0
KWA1 130013Z 07010KT 08/M10 A3019 RMK A01 T00821099  RH  027%=      5-min Rain = 0
KWA1 130014Z 07010KT 08/M10 A3019 RMK A01 T00811099  RH  027%=      5-min Rain = 0
KWA1 130015Z 07010KT 08/M10 A302 RMK A01 T00801099  RH  027%=      5-min Rain = 0
KWA1 130016Z 07010KT 08/M10 A302 RMK A01 T00811099  RH  027%=      5-min Rain = 0
KWA1 130017Z 07010KT 08/M10 A302 RMK A01 T00791099  RH  027%=      5-min Rain = 0
KWA1 130018Z 07010KT 08/M10 A302 RMK A01 T00781099  RH  027%=      5-min Rain = 0
KWA1 130019Z 07010KT 08/M10 A302 RMK A01 T00781098  RH  027%=      5-min Rain = 0
KWA1 130020Z 07010KT 08/M10 A302 RMK A01 T00781098  RH  028%=      5-min Rain = 0
KWA1 130021Z 07010KT 08/M10 A302 RMK A01 T00771098  RH  028%=      5-min Rain = 0
KWA1 130022Z 07010KT 08/M10 A302 RMK A01 T00761098  RH  028%=      5-min Rain = 0
KWA1 130023Z 07010KT 08/M10 A302 RMK A01 T00751098  RH  028%=      5-min Rain = 0
KWA1 130024Z 07009KT 08/M10 A302 RMK A01 T00751098  RH  028%=      5-min Rain = 0
KWA1 130025Z 07009KT 07/M10 A302 RMK A01 T00741098  RH  028%=      5-min Rain = 0
KWA1 130026Z 07010KT 07/M10 A302 RMK A01 T00731098  RH  028%=      5-min Rain = 0
KWA1 130027Z 07009KT 07/M10 A302 RMK A01 T00731098  RH  029%=      5-min Rain = 0
KWA1 130028Z 07010KT 07/M10 A302 RMK A01 T00721098  RH  029%=      5-min Rain = 0
KWA1 130029Z 07010KT 07/M10 A302 RMK A01 T00721098  RH  029%=      5-min Rain = 0
KWA1 130030Z 07010KT 07/M10 A302 RMK A01 T00711098  RH  029%=      5-min Rain = 0
KWA1 130031Z 07010KT 07/M10 A302 RMK A01 T00711098  RH  029%=      5-min Rain = 0
KWA1 130032Z 07009KT 07/M10 A302 RMK A01 T00711098  RH  029%=      5-min Rain = 0
KWA1 130033Z 07009KT 07/M10 A302 RMK A01 T00711098  RH  029%=      5-min Rain = 0
KWA1 130034Z 07009KT 07/M10 A302 RMK A01 T00701098  RH  029%=      5-min Rain = 0
KWA1 130035Z 07009KT 07/M10 A302 RMK A01 T00681098  RH  029%=      5-min Rain = 0
KWA1 130036Z 07009KT 07/M10 A302 RMK A01 T00681098  RH  030%=      5-min Rain = 0
KWA1 130037Z 07009KT 07/M10 A302 RMK A01 T00671098  RH  030%=      5-min Rain = 0
KWA1 130038Z 07009KT 07/M10 A302 RMK A01 T00671098  RH  030%=      5-min Rain = 0
KWA1 130039Z 07009KT 07/M10 A302 RMK A01 T00671097  RH  030%=      5-min Rain = 0
KWA1 130040Z 07010KT 07/M10 A302 RMK A01 T00661097  RH  030%=      5-min Rain = 0
KWA1 130041Z 07009KT 07/M10 A3021 RMK A01 T00661097  RH  030%=      5-min Rain = 0
KWA1 130042Z 07009KT 07/M10 A3021 RMK A01 T00661097  RH  030%=      5-min Rain = 0
KWA1 130043Z 07009KT 07/M10 A3021 RMK A01 T00661097  RH  030%=      5-min Rain = 0
KWA1 130044Z 07009KT 07/M10 A3021 RMK A01 T00651097  RH  030%=      5-min Rain = 0
KWA1 130045Z 07009KT 07/M10 A3021 RMK A01 T00651097  RH  030%=      5-min Rain = 0
KWA1 130046Z 07009KT 06/M10 A3021 RMK A01 T00641097  RH  030%=      5-min Rain = 0
KWA1 130047Z 07009KT 06/M10 A3021 RMK A01 T00641097  RH  031%=      5-min Rain = 0
KWA1 130048Z 07009KT 06/M10 A3021 RMK A01 T00631097  RH  031%=      5-min Rain = 0
KWA1 130049Z 07009KT 06/M10 A3021 RMK A01 T00631097  RH  031%=      5-min Rain = 0
KWA1 130050Z 07010KT 06/M10 A3021 RMK A01 T00621097  RH  031%=      5-min Rain = 0
KWA1 130051Z 07010KT 06/M10 A3021 RMK A01 T00621097  RH  031%=      5-min Rain = 0
KWA1 130052Z 07010KT 06/M10 A3021 RMK A01 T00621097  RH  031%=      5-min Rain = 0
KWA1 130053Z 07010KT 06/M10 A3021 RMK A01 T00621097  RH  031%=      5-min Rain = 0
KWA1 130054Z 07009KT 06/M10 A3021 RMK A01 T00621098  RH  031%=      5-min Rain = 0
KWA1 130055Z 07009KT 06/M10 A3021 RMK A01 T00611098  RH  031%=      5-min Rain = 0
KWA1 130056Z 07009KT 06/M10 A3021 RMK A01 T00611098  RH  031%=      5-min Rain = 0
KWA1 130057Z 07009KT 06/M10 A3021 RMK A01 T00611099  RH  031%=      5-min Rain = 0
KWA1 130058Z 07008KT 06/M10 A3021 RMK A01 T00601099  RH  031%=      5-min Rain = 0
KWA1 130059Z 07008KT 06/M10 A3021 RMK A01 T00601099  RH  031%=      5-min Rain = 0
KWA1 130100Z 07008KT 06/M10 A3021 RMK A01 T00591099  RH  031%=      5-min Rain = 0
KWA1 130101Z 07008KT 06/M10 A3021 RMK A01 T00581099  RH  031%=      5-min Rain = 0
KWA1 130102Z 07008KT 06/M10 A3021 RMK A01 T00571099  RH  032%=      5-min Rain = 0
KWA1 130103Z 07008KT 06/M10 A3021 RMK A01 T00561099  RH  032%=      5-min Rain = 0
KWA1 130104Z 07008KT 06/M10 A3022 RMK A01 T00561099  RH  032%=      5-min Rain = 0
KWA1 130105Z 07008KT 06/M10 A3022 RMK A01 T00561100  RH  032%=      5-min Rain = 0
KWA1 130106Z 07008KT 06/M10 A3022 RMK A01 T00551100  RH  032%=      5-min Rain = 0
KWA1 130107Z 07008KT 06/M10 A3022 RMK A01 T00551100  RH  032%=      5-min Rain = 0
KWA1 130108Z 07008KT 06/M10 A3022 RMK A01 T00551100  RH  032%=      5-min Rain = 0
KWA1 130109Z 07008KT 06/M10 A3022 RMK A01 T00551100  RH  032%=      5-min Rain = 0
KWA1 130110Z 07008KT 05/M10 A3022 RMK A01 T00531101  RH  032%=      5-min Rain = 0
KWA1 130111Z 07008KT 05/M10 A3022 RMK A01 T00531100  RH  032%=      5-min Rain = 0
KWA1 130112Z 07008KT 05/M10 A3022 RMK A01 T00521100  RH  032%=      5-min Rain = 0
KWA1 130113Z 07007KT 05/M10 A3022 RMK A01 T00511100  RH  033%=      5-min Rain = 0
KWA1 130114Z 07007KT 05/M10 A3022 RMK A01 T00501100  RH  033%=      5-min Rain = 0
KWA1 130115Z 07007KT 05/M10 A3022 RMK A01 T00491100  RH  033%=      5-min Rain = 0
KWA1 130116Z 07007KT 05/M10 A3022 RMK A01 T00481100  RH  033%=      5-min Rain = 0
KWA1 130117Z 07007KT 05/M10 A3023 RMK A01 T00481100  RH  033%=      5-min Rain = 0
KWA1 130118Z 07007KT 05/M10 A3023 RMK A01 T00471100  RH  034%=      5-min Rain = 0
KWA1 130119Z 07007KT 05/M10 A3023 RMK A01 T00461100  RH  034%=      5-min Rain = 0
KWA1 130120Z 07007KT 05/M10 A3023 RMK A01 T00451099  RH  034%=      5-min Rain = 0
KWA1 130121Z 07007KT 04/M10 A3023 RMK A01 T00441099  RH  035%=      5-min Rain = 0
KWA1 130122Z 07007KT 04/M10 A3023 RMK A01 T00431099  RH  035%=      5-min Rain = 0
KWA1 130123Z 07007KT 04/M10 A3023 RMK A01 T00421099  RH  035%=      5-min Rain = 0
KWA1 130124Z 07007KT 04/M10 A3023 RMK A01 T00411099  RH  035%=      5-min Rain = 0
KWA1 130125Z 07008KT 04/M10 A3023 RMK A01 T00411099  RH  035%=      5-min Rain = 0
KWA1 130126Z 07008KT 04/M10 A3023 RMK A01 T00411098  RH  036%=      5-min Rain = 0
KWA1 130127Z 07007KT 04/M10 A3023 RMK A01 T00401098  RH  036%=      5-min Rain = 0
KWA1 130128Z 07007KT 04/M10 A3023 RMK A01 T00391098  RH  036%=      5-min Rain = 0
KWA1 130129Z 07007KT 04/M10 A3023 RMK A01 T00381098  RH  036%=      5-min Rain = 0
KWA1 130130Z 07007KT 04/M10 A3023 RMK A01 T00381098  RH  036%=      5-min Rain = 0
KWA1 130131Z 07007KT 04/M10 A3023 RMK A01 T00371098  RH  037%=      5-min Rain = 0
KWA1 130132Z 07007KT 04/M10 A3023 RMK A01 T00361098  RH  037%=      5-min Rain = 0
KWA1 130133Z 07007KT 04/M10 A3023 RMK A01 T00361098  RH  037%=      5-min Rain = 0
KWA1 130134Z 07007KT 04/M10 A3023 RMK A01 T00351098  RH  037%=      5-min Rain = 0
KWA1 130135Z 07007KT 03/M10 A3023 RMK A01 T00341098  RH  037%=      5-min Rain = 0
KWA1 130136Z 07007KT 03/M10 A3023 RMK A01 T00341099  RH  037%=      5-min Rain = 0
KWA1 130137Z 07007KT 03/M10 A3023 RMK A01 T00331099  RH  037%=      5-min Rain = 0
KWA1 130138Z 07007KT 03/M10 A3023 RMK A01 T00341099  RH  037%=      5-min Rain = 0
KWA1 130139Z 07007KT 03/M10 A3023 RMK A01 T00341100  RH  037%=      5-min Rain = 0
KWA1 130140Z 07007KT 03/M10 A3023 RMK A01 T00331100  RH  037%=      5-min Rain = 0
KWA1 130141Z 07007KT 03/M10 A3023 RMK A01 T00331100  RH  037%=      5-min Rain = 0
KWA1 130142Z 07007KT 03/M10 A3023 RMK A01 T00321100  RH  037%=      5-min Rain = 0
KWA1 130143Z 07007KT 03/M10 A3024 RMK A01 T00321100  RH  037%=      5-min Rain = 0
KWA1 130144Z 07007KT 03/M10 A3024 RMK A01 T00311100  RH  037%=      5-min Rain = 0
KWA1 130145Z 07007KT 03/M10 A3024 RMK A01 T00311100  RH  038%=      5-min Rain = 0
KWA1 130146Z 07007KT 03/M10 A3024 RMK A01 T00301100  RH  038%=      5-min Rain = 0
KWA1 130147Z 07007KT 03/M10 A3024 RMK A01 T00301100  RH  038%=      5-min Rain = 0
KWA1 130148Z 07007KT 03/M10 A3024 RMK A01 T00311099  RH  038%=      5-min Rain = 0
KWA1 130149Z 07007KT 03/M10 A3024 RMK A01 T00311099  RH  038%=      5-min Rain = 0
KWA1 130150Z 08007KT 03/M10 A3024 RMK A01 T00311099  RH  038%=      5-min Rain = 0
KWA1 130151Z 08007KT 03/M10 A3024 RMK A01 T00311100  RH  038%=      5-min Rain = 0
KWA1 130152Z 07007KT 03/M10 A3024 RMK A01 T00311100  RH  038%=      5-min Rain = 0
KWA1 130153Z 08007KT 03/M10 A3024 RMK A01 T00311101  RH  037%=      5-min Rain = 0
KWA1 130154Z 07007KT 03/M10 A3024 RMK A01 T00311101  RH  037%=      5-min Rain = 0
KWA1 130155Z 08007KT 03/M10 A3024 RMK A01 T00311101  RH  037%=      5-min Rain = 0
KWA1 130156Z 08007KT 03/M10 A3024 RMK A01 T00311101  RH  037%=      5-min Rain = 0
KWA1 130157Z 08007KT 03/M10 A3024 RMK A01 T00301102  RH  037%=      5-min Rain = 0
KWA1 130158Z 08007KT 03/M10 A3025 RMK A01 T00301101  RH  037%=      5-min Rain = 0
KWA1 130159Z 08007KT 03/M10 A3025 RMK A01 T00311102  RH  037%=      5-min Rain = 0
KWA1 130200Z 08006KT 03/M10 A3025 RMK A01 T00311102  RH  037%=      5-min Rain = 0
KWA1 130201Z 08006KT 03/M10 A3025 RMK A01 T00311102  RH  037%=      5-min Rain = 0
KWA1 130202Z 08006KT 03/M10 A3025 RMK A01 T00311103  RH  037%=      5-min Rain = 0
KWA1 130203Z 08006KT 03/M10 A3025 RMK A01 T00311102  RH  037%=      5-min Rain = 0
KWA1 130204Z 08006KT 03/M10 A3025 RMK A01 T00311103  RH  037%=      5-min Rain = 0
KWA1 130205Z 08006KT 03/M10 A3025 RMK A01 T00301103  RH  037%=      5-min Rain = 0
KWA1 130206Z 08006KT 03/M10 A3025 RMK A01 T00301102  RH  037%=      5-min Rain = 0
KWA1 130207Z 08006KT 03/M10 A3025 RMK A01 T00301102  RH  037%=      5-min Rain = 0
KWA1 130208Z 08006KT 03/M10 A3025 RMK A01 T00291102  RH  037%=      5-min Rain = 0
KWA1 130209Z 09006KT 03/M10 A3025 RMK A01 T00291102  RH  037%=      5-min Rain = 0
KWA1 130210Z 09006KT 03/M10 A3025 RMK A01 T00291102  RH  038%=      5-min Rain = 0
KWA1 130211Z 09006KT 03/M10 A3025 RMK A01 T00281102  RH  038%=      5-min Rain = 0
KWA1 130212Z 09006KT 03/M10 A3026 RMK A01 T00281102  RH  038%=      5-min Rain = 0
KWA1 130213Z 09006KT 03/M10 A3026 RMK A01 T00271102  RH  038%=      5-min Rain = 0
KWA1 130214Z 09006KT 03/M10 A3026 RMK A01 T00271101  RH  038%=      5-min Rain = 0
KWA1 130215Z 08006KT 03/M10 A3026 RMK A01 T00271102  RH  038%=      5-min Rain = 0
KWA1 130216Z 08006KT 03/M10 A3026 RMK A01 T00271102  RH  038%=      5-min Rain = 0
KWA1 130217Z 09007KT 03/M10 A3026 RMK A01 T00271102  RH  038%=      5-min Rain = 0
KWA1 130218Z 09006KT 03/M10 A3026 RMK A01 T00261102  RH  038%=      5-min Rain = 0
KWA1 130219Z 09006KT 03/M10 A3026 RMK A01 T00261102  RH  038%=      5-min Rain = 0
KWA1 130220Z 08006KT 03/M10 A3026 RMK A01 T00261102  RH  038%=      5-min Rain = 0
KWA1 130221Z 09006KT 03/M10 A3026 RMK A01 T00261102  RH  038%=      5-min Rain = 0
KWA1 130222Z 08006KT 03/M10 A3026 RMK A01 T00261101  RH  038%=      5-min Rain = 0
KWA1 130223Z 08006KT 03/M10 A3026 RMK A01 T00251102  RH  039%=      5-min Rain = 0
KWA1 130224Z 08006KT 03/M10 A3026 RMK A01 T00251101  RH  039%=      5-min Rain = 0
KWA1 130225Z 08006KT 02/M10 A3026 RMK A01 T00241102  RH  039%=      5-min Rain = 0
KWA1 130226Z 08006KT 02/M10 A3026 RMK A01 T00221103  RH  039%=      5-min Rain = 0
KWA1 130227Z 08006KT 02/M10 A3026 RMK A01 T00211103  RH  040%=      5-min Rain = 0
KWA1 130228Z 08007KT 02/M10 A3026 RMK A01 T00201103  RH  040%=      5-min Rain = 0
KWA1 130229Z 08007KT 02/M10 A3026 RMK A01 T00181103  RH  040%=      5-min Rain = 0
KWA1 130230Z 08007KT 02/M10 A3026 RMK A01 T00171103  RH  041%=      5-min Rain = 0
KWA1 130231Z 08007KT 02/M10 A3026 RMK A01 T00161103  RH  041%=      5-min Rain = 0
KWA1 130232Z 08007KT 02/M10 A3026 RMK A01 T00161103  RH  041%=      5-min Rain = 0
KWA1 130233Z 08007KT 02/M10 A3027 RMK A01 T00161103  RH  041%=      5-min Rain = 0
KWA1 130234Z 08006KT 02/M10 A3027 RMK A01 T00161103  RH  041%=      5-min Rain = 0
KWA1 130235Z 08006KT 02/M10 A3027 RMK A01 T00161103  RH  041%=      5-min Rain = 0
KWA1 130236Z 08006KT 02/M10 A3027 RMK A01 T00161103  RH  041%=      5-min Rain = 0
KWA1 130237Z 08006KT 02/M10 A3027 RMK A01 T00161103  RH  041%=      5-min Rain = 0
KWA1 130238Z 08006KT 02/M10 A3027 RMK A01 T00161103  RH  041%=      5-min Rain = 0
KWA1 130239Z 08006KT 02/M10 A3027 RMK A01 T00161103  RH  041%=      5-min Rain = 0
KWA1 130240Z 08006KT 02/M10 A3027 RMK A01 T00151103  RH  041%=      5-min Rain = 0
KWA1 130241Z 08006KT 02/M10 A3027 RMK A01 T00151103  RH  041%=      5-min Rain = 0
KWA1 130242Z 08006KT 01/M10 A3027 RMK A01 T00141103  RH  041%=      5-min Rain = 0
KWA1 130243Z 09006KT 01/M10 A3027 RMK A01 T00141103  RH  041%=      5-min Rain = 0
KWA1 130244Z 09006KT 02/M10 A3027 RMK A01 T00151102  RH  041%=      5-min Rain = 0
KWA1 130245Z 09006KT 02/M10 A3027 RMK A01 T00151101  RH  042%=      5-min Rain = 0
KWA1 130246Z 09006KT 02/M10 A3027 RMK A01 T00151102  RH  042%=      5-min Rain = 0
KWA1 130247Z 09006KT 02/M10 A3027 RMK A01 T00151102  RH  041%=      5-min Rain = 0
KWA1 130248Z 09007KT 02/M10 A3027 RMK A01 T00151102  RH  041%=      5-min Rain = 0
KWA1 130249Z 09007KT 02/M10 A3028 RMK A01 T00161102  RH  041%=      5-min Rain = 0
KWA1 130250Z 09007KT 02/M10 A3028 RMK A01 T00171101  RH  041%=      5-min Rain = 0
KWA1 130251Z 09008KT 02/M10 A3028 RMK A01 T00181101  RH  041%=      5-min Rain = 0
KWA1 130252Z 09008KT 02/M10 A3028 RMK A01 T00181102  RH  041%=      5-min Rain = 0
KWA1 130253Z 09008KT 02/M10 A3028 RMK A01 T00181102  RH  041%=      5-min Rain = 0
KWA1 130254Z 09008KT 02/M10 A3028 RMK A01 T00191101  RH  041%=      5-min Rain = 0
KWA1 130255Z 09008KT 02/M10 A3028 RMK A01 T00181102  RH  041%=      5-min Rain = 0
KWA1 130256Z 09007KT 02/M10 A3028 RMK A01 T00191102  RH  041%=      5-min Rain = 0
KWA1 130257Z 08008KT 02/M10 A3028 RMK A01 T00191101  RH  041%=      5-min Rain = 0
KWA1 130258Z 08007KT 02/M10 A3028 RMK A01 T00181101  RH  041%=      5-min Rain = 0
KWA1 130259Z 08007KT 02/M10 A3028 RMK A01 T00181101  RH  041%=      5-min Rain = 0
KWA1 130300Z 09007KT 02/M10 A3029 RMK A01 T00171101  RH  041%=      5-min Rain = 0
KWA1 130301Z 09007KT 02/M10 A3029 RMK A01 T00161101  RH  042%=      5-min Rain = 0
KWA1 130302Z 08007KT 02/M10 A3029 RMK A01 T00161100  RH  042%=      5-min Rain = 0
KWA1 130303Z 09007KT 02/M10 A3029 RMK A01 T00151100  RH  042%=      5-min Rain = 0
KWA1 130304Z 09007KT 02/M10 A3029 RMK A01 T00151100  RH  042%=      5-min Rain = 0
KWA1 130305Z 08007KT 02/M10 A3029 RMK A01 T00161100  RH  042%=      5-min Rain = 0
KWA1 130306Z 09007KT 02/M10 A3029 RMK A01 T00151100  RH  042%=      5-min Rain = 0
KWA1 130307Z 09006KT 01/M10 A3029 RMK A01 T00141100  RH  042%=      5-min Rain = 0
KWA1 130308Z 09006KT 01/M10 A3029 RMK A01 T00131100  RH  042%=      5-min Rain = 0
KWA1 130309Z 09006KT 01/M10 A3029 RMK A01 T00131100  RH  043%=      5-min Rain = 0
KWA1 130310Z 08006KT 01/M10 A3029 RMK A01 T00121101  RH  043%=      5-min Rain = 0
KWA1 130311Z 08006KT 01/M10 A303 RMK A01 T00111100  RH  043%=      5-min Rain = 0
KWA1 130312Z 08006KT 01/M10 A303 RMK A01 T00101101  RH  043%=      5-min Rain = 0
KWA1 130313Z 08006KT 01/M10 A303 RMK A01 T00081102  RH  043%=      5-min Rain = 0
KWA1 130314Z 08006KT 01/M10 A303 RMK A01 T00071102  RH  044%=      5-min Rain = 0
KWA1 130315Z 08006KT 01/M10 A303 RMK A01 T00071102  RH  044%=      5-min Rain = 0
KWA1 130316Z 08006KT 01/M10 A303 RMK A01 T00071101  RH  044%=      5-min Rain = 0
KWA1 130317Z 08006KT 01/M10 A303 RMK A01 T00071101  RH  044%=      5-min Rain = 0
KWA1 130318Z 08007KT 01/M10 A303 RMK A01 T00071100  RH  044%=      5-min Rain = 0
KWA1 130319Z 07007KT 01/M10 A303 RMK A01 T00071101  RH  045%=      5-min Rain = 0
KWA1 130320Z 07007KT 01/M10 A303 RMK A01 T00071100  RH  045%=      5-min Rain = 0
KWA1 130321Z 06008KT 01/M10 A3031 RMK A01 T00061099  RH  045%=      5-min Rain = 0
KWA1 130322Z 07008KT 01/M10 A3031 RMK A01 T00051098  RH  046%=      5-min Rain = 0
KWA1 130323Z 07008KT 01/M10 A3031 RMK A01 T00051097  RH  046%=      5-min Rain = 0
KWA1 130324Z 07009KT 01/M10 A3031 RMK A01 T00051097  RH  047%=      5-min Rain = 0
KWA1 130325Z 07009KT 01/M10 A3031 RMK A01 T00051097  RH  047%=      5-min Rain = 0
KWA1 130326Z 07009KT 01/M10 A3031 RMK A01 T00051096  RH  046%=      5-min Rain = 0
KWA1 130327Z 07009KT 01/M10 A3031 RMK A01 T00051097  RH  046%=      5-min Rain = 0
KWA1 130328Z 08009KT 01/M10 A3031 RMK A01 T00051097  RH  046%=      5-min Rain = 0
KWA1 130329Z 08009KT 01/M10 A3031 RMK A01 T00061097  RH  046%=      5-min Rain = 0
KWA1 130330Z 08009KT 01/M10 A3031 RMK A01 T00071097  RH  046%=      5-min Rain = 0
KWA1 130331Z 08008KT 01/M10 A3031 RMK A01 T00071098  RH  045%=      5-min Rain = 0
KWA1 130332Z 08008KT 01/M10 A3031 RMK A01 T00071098  RH  045%=      5-min Rain = 0
KWA1 130333Z 07008KT 01/M10 A3031 RMK A01 T00071098  RH  045%=      5-min Rain = 0
KWA1 130334Z 06007KT 01/M10 A3031 RMK A01 T00071098  RH  045%=      5-min Rain = 0
KWA1 130335Z 06007KT 01/M10 A3031 RMK A01 T00051098  RH  046%=      5-min Rain = 0
KWA1 130336Z 06007KT 00/M10 A3032 RMK A01 T00031097  RH  047%=      5-min Rain = 0
KWA1 130337Z 07008KT 00/M10 A3032 RMK A01 T00021096  RH  048%=      5-min Rain = 0
KWA1 130338Z 07008KT 00/M10 A3032 RMK A01 T00021096  RH  048%=      5-min Rain = 0
KWA1 130339Z 08008KT 00/M10 A3032 RMK A01 T00021096  RH  048%=      5-min Rain = 0
KWA1 130340Z 08009KT 00/M10 A3032 RMK A01 T00011096  RH  048%=      5-min Rain = 0
KWA1 130341Z 08008KT 00/M10 A3032 RMK A01 T00011097  RH  048%=      5-min Rain = 0
KWA1 130342Z 08008KT 00/M10 A3032 RMK A01 T00011097  RH  048%=      5-min Rain = 0
KWA1 130343Z 08008KT 00/M10 A3032 RMK A01 T00021097  RH  047%=      5-min Rain = 0
KWA1 130344Z 07008KT 00/M10 A3032 RMK A01 T00021097  RH  047%=      5-min Rain = 0
KWA1 130345Z 07008KT 00/M10 A3032 RMK A01 T00011097  RH  048%=      5-min Rain = 0
KWA1 130346Z 07008KT 00/10 A3033 RMK A01 T00000-98  RH  048%=      5-min Rain = 0
KWA1 130347Z 07008KT 00/10 A3033 RMK A01 T00-00-97  RH  048%=      5-min Rain = 0
KWA1 130348Z 07008KT 00/10 A3033 RMK A01 T00000-97  RH  048%=      5-min Rain = 0
KWA1 130349Z 08009KT 00/10 A3033 RMK A01 T00-00-97  RH  048%=      5-min Rain = 0
KWA1 130350Z 08009KT 00/10 A3032 RMK A01 T00-00-97  RH  048%=      5-min Rain = 0
KWA1 130351Z 08008KT 00/10 A3032 RMK A01 T00000-97  RH  048%=      5-min Rain = 0
KWA1 130352Z 08008KT 00/M10 A3032 RMK A01 T00011098  RH  047%=      5-min Rain = 0
KWA1 130353Z 08008KT 00/M10 A3032 RMK A01 T00041098  RH  046%=      5-min Rain = 0
KWA1 130354Z 08008KT 01/M10 A3033 RMK A01 T00051098  RH  046%=      5-min Rain = 0
KWA1 130355Z 08008KT 01/M10 A3033 RMK A01 T00051099  RH  046%=      5-min Rain = 0
KWA1 130356Z 08007KT 01/M10 A3033 RMK A01 T00051099  RH  046%=      5-min Rain = 0
KWA1 130357Z 08007KT 00/M10 A3033 RMK A01 T00031100  RH  046%=      5-min Rain = 0
KWA1 130358Z 08007KT 00/M10 A3033 RMK A01 T00011100  RH  047%=      5-min Rain = 0
KWA1 130359Z 08008KT 00/10 A3033 RMK A01 T00-00-100  RH  047%=      5-min Rain = 0
KWA1 130400Z 08008KT M00/M10 A3033 RMK A01 T10011100  RH  048%=      5-min Rain = 0
KWA1 130401Z 09008KT 00/10 A3033 RMK A01 T00-00-99  RH  047%=      5-min Rain = 0
KWA1 130402Z 09008KT 00/M10 A3033 RMK A01 T00011099  RH  047%=      5-min Rain = 0
KWA1 130403Z 10008KT 00/M10 A3033 RMK A01 T00021098  RH  047%=      5-min Rain = 0
KWA1 130404Z 10008KT 00/M10 A3033 RMK A01 T00021099  RH  047%=      5-min Rain = 0
KWA1 130405Z 09007KT 00/M10 A3033 RMK A01 T00031098  RH  047%=      5-min Rain = 0
KWA1 130406Z 09007KT 00/M10 A3033 RMK A01 T00041098  RH  046%=      5-min Rain = 0
KWA1 130407Z 09006KT 00/M10 A3033 RMK A01 T00041099  RH  046%=      5-min Rain = 0
KWA1 130408Z 08006KT 00/M10 A3033 RMK A01 T00031099  RH  046%=      5-min Rain = 0
KWA1 130409Z 08006KT 00/M10 A3033 RMK A01 T00011101  RH  046%=      5-min Rain = 0
KWA1 130410Z 08006KT M00/M10 A3033 RMK A01 T10021101  RH  047%=      5-min Rain = 0
KWA1 130411Z 08006KT M00/M10 A3033 RMK A01 T10031101  RH  048%=      5-min Rain = 0
KWA1 130412Z 09007KT M00/M10 A3033 RMK A01 T10041101  RH  048%=      5-min Rain = 0
KWA1 130413Z 09007KT M00/M10 A3033 RMK A01 T10031100  RH  048%=      5-min Rain = 0
KWA1 130414Z 09007KT M00/M10 A3033 RMK A01 T10021099  RH  048%=      5-min Rain = 0
KWA1 130415Z 09007KT M00/M10 A3033 RMK A01 T10021099  RH  048%=      5-min Rain = 0
KWA1 130416Z 09008KT M00/M10 A3033 RMK A01 T10021098  RH  048%=      5-min Rain = 0
KWA1 130417Z 09008KT M00/M10 A3033 RMK A01 T10011099  RH  048%=      5-min Rain = 0
KWA1 130418Z 09008KT 00/10 A3033 RMK A01 T00000-99  RH  047%=      5-min Rain = 0
KWA1 130419Z 09008KT 00/M10 A3033 RMK A01 T00021099  RH  047%=      5-min Rain = 0
KWA1 130420Z 08008KT 00/M10 A3033 RMK A01 T00021099  RH  047%=      5-min Rain = 0
KWA1 130421Z 08008KT 00/M10 A3033 RMK A01 T00021099  RH  046%=      5-min Rain = 0
KWA1 130422Z 08008KT 00/M10 A3033 RMK A01 T00031100  RH  046%=      5-min Rain = 0
KWA1 130423Z 08007KT 00/M10 A3033 RMK A01 T00031100  RH  046%=      5-min Rain = 0
KWA1 130424Z 08007KT 00/M10 A3033 RMK A01 T00031099  RH  046%=      5-min Rain = 0
KWA1 130425Z 09007KT 00/M10 A3033 RMK A01 T00021099  RH  046%=      5-min Rain = 0
KWA1 130426Z 08007KT 00/M10 A3034 RMK A01 T00021099  RH  047%=      5-min Rain = 0
KWA1 130427Z 08007KT 00/M10 A3034 RMK A01 T00011099  RH  047%=      5-min Rain = 0
KWA1 130428Z 08007KT 00/10 A3034 RMK A01 T00-00-100  RH  047%=      5-min Rain = 0
KWA1 130429Z 08007KT M00/M10 A3034 RMK A01 T10011100  RH  047%=      5-min Rain = 0
KWA1 130430Z 08007KT M00/M10 A3033 RMK A01 T10021101  RH  047%=      5-min Rain = 0
KWA1 130431Z 08007KT M00/M10 A3034 RMK A01 T10031101  RH  048%=      5-min Rain = 0
KWA1 130432Z 09007KT M00/M10 A3034 RMK A01 T10021101  RH  047%=      5-min Rain = 0
KWA1 130433Z 09007KT M00/M10 A3034 RMK A01 T10021101  RH  047%=      5-min Rain = 0
KWA1 130434Z 09007KT M00/M10 A3034 RMK A01 T10011101  RH  047%=      5-min Rain = 0
KWA1 130435Z 09007KT M00/M10 A3034 RMK A01 T10011101  RH  047%=      5-min Rain = 0
KWA1 130436Z 09007KT 00/10 A3034 RMK A01 T00-00-101  RH  047%=      5-min Rain = 0
KWA1 130437Z 08008KT 00/10 A3034 RMK A01 T00-00-101  RH  047%=      5-min Rain = 0
KWA1 130438Z 08008KT 00/10 A3034 RMK A01 T00000-101  RH  046%=      5-min Rain = 0
KWA1 130439Z 08008KT 00/10 A3034 RMK A01 T00000-101  RH  047%=      5-min Rain = 0
KWA1 130440Z 08008KT M00/M10 A3034 RMK A01 T10011101  RH  047%=      5-min Rain = 0
KWA1 130441Z 08009KT M00/M10 A3034 RMK A01 T10021101  RH  047%=      5-min Rain = 0
KWA1 130442Z 08009KT M00/M10 A3034 RMK A01 T10021100  RH  047%=      5-min Rain = 0
KWA1 130443Z 08009KT M00/M10 A3035 RMK A01 T10021100  RH  047%=      5-min Rain = 0
KWA1 130444Z 08008KT M00/M10 A3035 RMK A01 T10011100  RH  047%=      5-min Rain = 0
KWA1 130445Z 07008KT M00/M10 A3035 RMK A01 T10011100  RH  047%=      5-min Rain = 0
KWA1 130446Z 07008KT 00/10 A3035 RMK A01 T00-00-100  RH  047%=      5-min Rain = 0
KWA1 130447Z 06008KT M00/M10 A3035 RMK A01 T10011099  RH  048%=      5-min Rain = 0
KWA1 130448Z 06008KT M00/M10 A3036 RMK A01 T10021098  RH  048%=      5-min Rain = 0
KWA1 130449Z 07009KT M00/M10 A3036 RMK A01 T10031097  RH  049%=      5-min Rain = 0
KWA1 130450Z 07009KT M00/M10 A3036 RMK A01 T10031096  RH  049%=      5-min Rain = 0
KWA1 130451Z 08009KT M00/M10 A3036 RMK A01 T10031096  RH  049%=      5-min Rain = 0
KWA1 130452Z 08008KT M00/M10 A3036 RMK A01 T10031097  RH  049%=      5-min Rain = 0
KWA1 130453Z 08008KT M00/M10 A3036 RMK A01 T10021097  RH  049%=      5-min Rain = 0
KWA1 130454Z 08008KT M00/M10 A3036 RMK A01 T10031098  RH  049%=      5-min Rain = 0
KWA1 130455Z 08008KT M00/M10 A3036 RMK A01 T10021098  RH  048%=      5-min Rain = 0
KWA1 130456Z 08008KT M00/M10 A3036 RMK A01 T10011098  RH  048%=      5-min Rain = 0
KWA1 130457Z 08008KT M00/M10 A3036 RMK A01 T10011098  RH  048%=      5-min Rain = 0
KWA1 130458Z 08008KT M00/M10 A3036 RMK A01 T10011098  RH  048%=      5-min Rain = 0
KWA1 130459Z 07008KT M00/M10 A3036 RMK A01 T10021098  RH  048%=      5-min Rain = 0
KWA1 130500Z 07008KT M00/M10 A3036 RMK A01 T10031098  RH  049%=      5-min Rain = 0
KWA1 130501Z 07008KT M00/M10 A3036 RMK A01 T10041098  RH  049%=      5-min Rain = 0
KWA1 130502Z 07008KT M00/M10 A3036 RMK A01 T10041098  RH  049%=      5-min Rain = 0
KWA1 130503Z 08008KT M01/M10 A3036 RMK A01 T10051098  RH  049%=      5-min Rain = 0
KWA1 130504Z 08008KT M01/M10 A3036 RMK A01 T10051098  RH  050%=      5-min Rain = 0
KWA1 130505Z 07007KT M01/M10 A3036 RMK A01 T10051098  RH  050%=      5-min Rain = 0
KWA1 130506Z 07007KT M01/M10 A3036 RMK A01 T10061098  RH  050%=      5-min Rain = 0
KWA1 130507Z 08007KT M01/M10 A3036 RMK A01 T10071097  RH  050%=      5-min Rain = 0
KWA1 130508Z 08007KT M01/M10 A3036 RMK A01 T10071098  RH  050%=      5-min Rain = 0
KWA1 130509Z 07007KT M01/M10 A3036 RMK A01 T10081098  RH  051%=      5-min Rain = 0
KWA1 130510Z 06007KT M01/M10 A3036 RMK A01 T10081098  RH  051%=      5-min Rain = 0
KWA1 130511Z 06007KT M01/M10 A3036 RMK A01 T10101097  RH  051%=      5-min Rain = 0
KWA1 130512Z 06008KT M01/M10 A3036 RMK A01 T10111096  RH  052%=      5-min Rain = 0
KWA1 130513Z 07008KT M01/M10 A3037 RMK A01 T10111095  RH  053%=      5-min Rain = 0
KWA1 130514Z 06008KT M01/M10 A3037 RMK A01 T10111095  RH  053%=      5-min Rain = 0
KWA1 130515Z 06008KT M01/M09 A3037 RMK A01 T10111094  RH  053%=      5-min Rain = 0
KWA1 130516Z 06008KT M01/M09 A3037 RMK A01 T10111094  RH  053%=      5-min Rain = 0
KWA1 130517Z 06008KT M01/M09 A3037 RMK A01 T10121094  RH  054%=      5-min Rain = 0
KWA1 130518Z 06008KT M01/M09 A3037 RMK A01 T10121094  RH  054%=      5-min Rain = 0
KWA1 130519Z 06008KT M01/M10 A3037 RMK A01 T10121095  RH  054%=      5-min Rain = 0
KWA1 130520Z 06008KT M01/M10 A3037 RMK A01 T10121095  RH  053%=      5-min Rain = 0
KWA1 130521Z 06009KT M01/M10 A3037 RMK A01 T10121096  RH  053%=      5-min Rain = 0
KWA1 130522Z 06008KT M01/M10 A3037 RMK A01 T10101096  RH  052%=      5-min Rain = 0
KWA1 130523Z 06008KT M01/M10 A3037 RMK A01 T10091096  RH  052%=      5-min Rain = 0
KWA1 130524Z 07008KT M01/M10 A3037 RMK A01 T10081096  RH  051%=      5-min Rain = 0
KWA1 130525Z 07008KT M01/M10 A3037 RMK A01 T10081096  RH  051%=      5-min Rain = 0
KWA1 130526Z 07009KT M01/M10 A3037 RMK A01 T10071096  RH  051%=      5-min Rain = 0
KWA1 130527Z 07008KT M01/M10 A3037 RMK A01 T10081097  RH  051%=      5-min Rain = 0
KWA1 130528Z 07008KT M01/M10 A3037 RMK A01 T10081097  RH  051%=      5-min Rain = 0
KWA1 130529Z 07008KT M01/M10 A3037 RMK A01 T10081097  RH  051%=      5-min Rain = 0
KWA1 130530Z 07008KT M01/M10 A3037 RMK A01 T10091096  RH  052%=      5-min Rain = 0
KWA1 130531Z 07008KT M01/M10 A3037 RMK A01 T10111096  RH  052%=      5-min Rain = 0
KWA1 130532Z 07008KT M01/M10 A3038 RMK A01 T10111096  RH  053%=      5-min Rain = 0
KWA1 130533Z 06009KT M01/M10 A3038 RMK A01 T10111095  RH  053%=      5-min Rain = 0
KWA1 130534Z 06008KT M01/M10 A3038 RMK A01 T10111095  RH  053%=      5-min Rain = 0
KWA1 130535Z 07008KT M01/M10 A3038 RMK A01 T10111095  RH  053%=      5-min Rain = 0
KWA1 130536Z 07008KT M01/M10 A3038 RMK A01 T10111095  RH  053%=      5-min Rain = 0
KWA1 130537Z 07008KT M01/M09 A3038 RMK A01 T10111094  RH  053%=      5-min Rain = 0
KWA1 130538Z 07008KT M01/M10 A3038 RMK A01 T10121095  RH  053%=      5-min Rain = 0
KWA1 130539Z 06008KT M01/M09 A3038 RMK A01 T10121094  RH  054%=      5-min Rain = 0
KWA1 130540Z 06008KT M01/M09 A3038 RMK A01 T10141094  RH  054%=      5-min Rain = 0
KWA1 130541Z 06008KT M01/M09 A3038 RMK A01 T10141094  RH  055%=      5-min Rain = 0
KWA1 130542Z 07008KT M02/M09 A3038 RMK A01 T10151094  RH  055%=      5-min Rain = 0
KWA1 130543Z 07008KT M02/M09 A3037 RMK A01 T10161094  RH  055%=      5-min Rain = 0
KWA1 130544Z 07008KT M02/M09 A3037 RMK A01 T10161093  RH  055%=      5-min Rain = 0
KWA1 130545Z 07008KT M02/M09 A3037 RMK A01 T10161094  RH  055%=      5-min Rain = 0
KWA1 130546Z 07008KT M02/M09 A3037 RMK A01 T10161094  RH  055%=      5-min Rain = 0
KWA1 130547Z 07008KT M02/M10 A3037 RMK A01 T10161095  RH  055%=      5-min Rain = 0
KWA1 130548Z 07008KT M02/M10 A3037 RMK A01 T10151095  RH  054%=      5-min Rain = 0
KWA1 130549Z 07008KT M01/M10 A3038 RMK A01 T10141095  RH  054%=      5-min Rain = 0
KWA1 130550Z 07008KT M01/M10 A3038 RMK A01 T10141096  RH  054%=      5-min Rain = 0
KWA1 130551Z 07008KT M01/M10 A3038 RMK A01 T10141096  RH  054%=      5-min Rain = 0
KWA1 130552Z 07008KT M01/M10 A3038 RMK A01 T10141096  RH  054%=      5-min Rain = 0
KWA1 130553Z 07008KT M01/M10 A3038 RMK A01 T10141095  RH  054%=      5-min Rain = 0
KWA1 130554Z 07008KT M02/M10 A3038 RMK A01 T10151095  RH  054%=      5-min Rain = 0
KWA1 130555Z 08008KT M02/M10 A3037 RMK A01 T10151096  RH  054%=      5-min Rain = 0
KWA1 130556Z 08007KT M02/M10 A3038 RMK A01 T10151096  RH  054%=      5-min Rain = 0
KWA1 130557Z 07007KT M01/M10 A3038 RMK A01 T10141097  RH  053%=      5-min Rain = 0
KWA1 130558Z 06008KT M01/M10 A3038 RMK A01 T10141097  RH  053%=      5-min Rain = 0
KWA1 130559Z 06008KT M01/M10 A3038 RMK A01 T10141096  RH  054%=      5-min Rain = 0

Page generated in 0.1828 seconds.